<?xml version="1.0" encoding="UTF-8" standalone="no" ?>
<gpx xmlns="http://www.topografix.com/GPX/1/1" xmlns:xsi="http://www.w3.org/2001/XMLSchema-instance" xsi:schemaLocation="http://www.topografix.com/GPX/1/1 http://www.topografix.com/GPX/1/1/gpx.xsd" version="1.1" creator="VisuGPX - https://www.visugpx.com">
  <metadata>
    <name>15/18 St Sauveur en rue / Coirolles</name>
    <desc><![CDATA[File with points/tracks from Locus Map Classic/3.60.0]]></desc>
  </metadata>
  <trk>
    <name><![CDATA[St Sauveur en rue / Coirolles]]></name>
    <extensions>
      <line xmlns="http://www.topografix.com/GPX/gpx_style/0/2">
        <color>0000FF</color>
        <opacity>0.59</opacity>
        <width>4.0</width>
      </line>
    </extensions>
    <trkseg>
      <trkpt lat="45.26865" lon="4.50538">
        <ele>733.11</ele>
        <time>2022-05-06T06:41:37.000Z</time>
      </trkpt>
      <trkpt lat="45.26862" lon="4.50506">
        <ele>790.11</ele>
        <time>2022-05-06T06:44:56.064Z</time>
      </trkpt>
      <trkpt lat="45.26849" lon="4.5048">
        <ele>794.05</ele>
        <time>2022-05-06T06:45:19.522Z</time>
      </trkpt>
      <trkpt lat="45.26835" lon="4.50453">
        <ele>789.76</ele>
        <time>2022-05-06T06:45:53.000Z</time>
      </trkpt>
      <trkpt lat="45.26823" lon="4.50426">
        <ele>792.99</ele>
        <time>2022-05-06T06:46:12.906Z</time>
      </trkpt>
      <trkpt lat="45.26809" lon="4.50399">
        <ele>794.94</ele>
        <time>2022-05-06T06:46:34.080Z</time>
      </trkpt>
      <trkpt lat="45.26803" lon="4.50367">
        <ele>790.42</ele>
        <time>2022-05-06T06:46:55.000Z</time>
      </trkpt>
      <trkpt lat="45.26824" lon="4.50355">
        <ele>790.41</ele>
        <time>2022-05-06T06:47:19.922Z</time>
      </trkpt>
      <trkpt lat="45.26816" lon="4.50324">
        <ele>785.51</ele>
        <time>2022-05-06T06:47:44.880Z</time>
      </trkpt>
      <trkpt lat="45.26804" lon="4.50296">
        <ele>786.86</ele>
        <time>2022-05-06T06:48:06.666Z</time>
      </trkpt>
      <trkpt lat="45.26792" lon="4.50268">
        <ele>787.09</ele>
        <time>2022-05-06T06:48:26.840Z</time>
      </trkpt>
      <trkpt lat="45.26782" lon="4.5024">
        <ele>787.99</ele>
        <time>2022-05-06T06:48:46.000Z</time>
      </trkpt>
      <trkpt lat="45.26773" lon="4.50209">
        <ele>825.85</ele>
        <time>2022-05-06T06:49:06.000Z</time>
      </trkpt>
      <trkpt lat="45.26767" lon="4.50178">
        <ele>825.8</ele>
        <time>2022-05-06T06:49:23.037Z</time>
      </trkpt>
      <trkpt lat="45.26761" lon="4.50147">
        <ele>789.16</ele>
        <time>2022-05-06T06:49:46.000Z</time>
      </trkpt>
      <trkpt lat="45.26758" lon="4.50115">
        <ele>790.44</ele>
        <time>2022-05-06T06:50:07.765Z</time>
      </trkpt>
      <trkpt lat="45.26749" lon="4.50085">
        <ele>787.26</ele>
        <time>2022-05-06T06:52:35.923Z</time>
      </trkpt>
      <trkpt lat="45.26749" lon="4.50053">
        <ele>791.15</ele>
        <time>2022-05-06T06:52:59.036Z</time>
      </trkpt>
      <trkpt lat="45.26746" lon="4.50021">
        <ele>797.27</ele>
        <time>2022-05-06T06:53:21.102Z</time>
      </trkpt>
      <trkpt lat="45.26741" lon="4.49989">
        <ele>797</ele>
        <time>2022-05-06T06:53:43.398Z</time>
      </trkpt>
      <trkpt lat="45.26731" lon="4.4996">
        <ele>742.24</ele>
        <time>2022-05-06T06:54:06.000Z</time>
      </trkpt>
      <trkpt lat="45.2672" lon="4.49932">
        <ele>792.05</ele>
        <time>2022-05-06T06:54:26.357Z</time>
      </trkpt>
      <trkpt lat="45.26706" lon="4.49903">
        <ele>789.55</ele>
        <time>2022-05-06T06:54:49.000Z</time>
      </trkpt>
      <trkpt lat="45.26692" lon="4.49877">
        <ele>791.58</ele>
        <time>2022-05-06T06:55:10.461Z</time>
      </trkpt>
      <trkpt lat="45.26678" lon="4.49852">
        <ele>790.95</ele>
        <time>2022-05-06T06:55:30.644Z</time>
      </trkpt>
      <trkpt lat="45.26664" lon="4.49824">
        <ele>747.89</ele>
        <time>2022-05-06T06:55:52.565Z</time>
      </trkpt>
      <trkpt lat="45.26651" lon="4.49798">
        <ele>773.34</ele>
        <time>2022-05-06T06:56:13.161Z</time>
      </trkpt>
      <trkpt lat="45.26637" lon="4.49772">
        <ele>789.02</ele>
        <time>2022-05-06T06:56:37.000Z</time>
      </trkpt>
      <trkpt lat="45.26624" lon="4.49745">
        <ele>760.8</ele>
        <time>2022-05-06T06:59:20.053Z</time>
      </trkpt>
      <trkpt lat="45.26611" lon="4.49717">
        <ele>799.19</ele>
        <time>2022-05-06T06:59:38.970Z</time>
      </trkpt>
      <trkpt lat="45.26597" lon="4.49692">
        <ele>798.24</ele>
        <time>2022-05-06T07:00:01.573Z</time>
      </trkpt>
      <trkpt lat="45.26583" lon="4.49666">
        <ele>804.93</ele>
        <time>2022-05-06T07:00:23.000Z</time>
      </trkpt>
      <trkpt lat="45.26564" lon="4.49649">
        <ele>798.06</ele>
        <time>2022-05-06T07:02:24.108Z</time>
      </trkpt>
      <trkpt lat="45.26546" lon="4.49629">
        <ele>798.52</ele>
        <time>2022-05-06T07:02:44.974Z</time>
      </trkpt>
      <trkpt lat="45.26529" lon="4.49608">
        <ele>799.83</ele>
        <time>2022-05-06T07:03:05.090Z</time>
      </trkpt>
      <trkpt lat="45.26512" lon="4.49588">
        <ele>799.03</ele>
        <time>2022-05-06T07:03:25.147Z</time>
      </trkpt>
      <trkpt lat="45.26495" lon="4.49566">
        <ele>801.51</ele>
        <time>2022-05-06T07:03:46.109Z</time>
      </trkpt>
      <trkpt lat="45.26478" lon="4.49542">
        <ele>776.73</ele>
        <time>2022-05-06T07:04:07.550Z</time>
      </trkpt>
      <trkpt lat="45.26459" lon="4.49525">
        <ele>803.62</ele>
        <time>2022-05-06T07:04:27.000Z</time>
      </trkpt>
      <trkpt lat="45.2644" lon="4.49503">
        <ele>799.59</ele>
        <time>2022-05-06T07:04:49.089Z</time>
      </trkpt>
      <trkpt lat="45.2642" lon="4.49482">
        <ele>802.72</ele>
        <time>2022-05-06T07:05:11.749Z</time>
      </trkpt>
      <trkpt lat="45.26401" lon="4.4946">
        <ele>778.15</ele>
        <time>2022-05-06T07:05:32.075Z</time>
      </trkpt>
      <trkpt lat="45.26383" lon="4.49441">
        <ele>805.95</ele>
        <time>2022-05-06T07:05:51.911Z</time>
      </trkpt>
      <trkpt lat="45.26366" lon="4.49418">
        <ele>805.19</ele>
        <time>2022-05-06T07:06:13.411Z</time>
      </trkpt>
      <trkpt lat="45.26349" lon="4.49396">
        <ele>807.32</ele>
        <time>2022-05-06T07:06:35.000Z</time>
      </trkpt>
      <trkpt lat="45.26332" lon="4.49372">
        <ele>810.13</ele>
        <time>2022-05-06T07:06:54.073Z</time>
      </trkpt>
      <trkpt lat="45.26317" lon="4.49348">
        <ele>811.57</ele>
        <time>2022-05-06T07:07:12.949Z</time>
      </trkpt>
      <trkpt lat="45.26302" lon="4.49323">
        <ele>812.99</ele>
        <time>2022-05-06T07:07:33.892Z</time>
      </trkpt>
      <trkpt lat="45.26291" lon="4.49294">
        <ele>810.53</ele>
        <time>2022-05-06T07:07:53.853Z</time>
      </trkpt>
      <trkpt lat="45.26281" lon="4.49265">
        <ele>811.36</ele>
        <time>2022-05-06T07:08:13.968Z</time>
      </trkpt>
      <trkpt lat="45.26274" lon="4.49234">
        <ele>814.79</ele>
        <time>2022-05-06T07:08:33.516Z</time>
      </trkpt>
      <trkpt lat="45.26267" lon="4.49204">
        <ele>813.42</ele>
        <time>2022-05-06T07:08:55.000Z</time>
      </trkpt>
      <trkpt lat="45.26264" lon="4.4917">
        <ele>814.02</ele>
        <time>2022-05-06T07:09:16.052Z</time>
      </trkpt>
      <trkpt lat="45.26259" lon="4.49138">
        <ele>813.81</ele>
        <time>2022-05-06T07:09:37.676Z</time>
      </trkpt>
      <trkpt lat="45.26256" lon="4.49106">
        <ele>815.18</ele>
        <time>2022-05-06T07:09:58.752Z</time>
      </trkpt>
      <trkpt lat="45.26254" lon="4.49073">
        <ele>812.22</ele>
        <time>2022-05-06T07:10:27.570Z</time>
      </trkpt>
      <trkpt lat="45.26252" lon="4.4904">
        <ele>803.59</ele>
        <time>2022-05-06T07:10:49.158Z</time>
      </trkpt>
      <trkpt lat="45.26248" lon="4.49008">
        <ele>813.72</ele>
        <time>2022-05-06T07:11:12.007Z</time>
      </trkpt>
      <trkpt lat="45.26245" lon="4.48975">
        <ele>815.78</ele>
        <time>2022-05-06T07:11:33.035Z</time>
      </trkpt>
      <trkpt lat="45.26242" lon="4.48943">
        <ele>815.32</ele>
        <time>2022-05-06T07:11:55.695Z</time>
      </trkpt>
      <trkpt lat="45.26239" lon="4.48911">
        <ele>816.89</ele>
        <time>2022-05-06T07:12:17.012Z</time>
      </trkpt>
      <trkpt lat="45.26236" lon="4.48876">
        <ele>821.29</ele>
        <time>2022-05-06T07:12:38.504Z</time>
      </trkpt>
      <trkpt lat="45.26233" lon="4.48844">
        <ele>822.71</ele>
        <time>2022-05-06T07:13:00.988Z</time>
      </trkpt>
      <trkpt lat="45.26229" lon="4.48813">
        <ele>819.9</ele>
        <time>2022-05-06T07:13:23.000Z</time>
      </trkpt>
      <trkpt lat="45.26226" lon="4.48781">
        <ele>823.92</ele>
        <time>2022-05-06T07:13:42.000Z</time>
      </trkpt>
      <trkpt lat="45.26223" lon="4.48749">
        <ele>823.53</ele>
        <time>2022-05-06T07:14:01.132Z</time>
      </trkpt>
      <trkpt lat="45.26219" lon="4.48716">
        <ele>824.27</ele>
        <time>2022-05-06T07:14:23.755Z</time>
      </trkpt>
      <trkpt lat="45.26209" lon="4.48686">
        <ele>821.55</ele>
        <time>2022-05-06T07:14:49.556Z</time>
      </trkpt>
      <trkpt lat="45.2619" lon="4.48667">
        <ele>824.63</ele>
        <time>2022-05-06T07:15:12.507Z</time>
      </trkpt>
      <trkpt lat="45.26181" lon="4.48638">
        <ele>829.21</ele>
        <time>2022-05-06T07:15:41.000Z</time>
      </trkpt>
      <trkpt lat="45.26167" lon="4.48612">
        <ele>831.54</ele>
        <time>2022-05-06T07:16:12.000Z</time>
      </trkpt>
      <trkpt lat="45.26148" lon="4.48593">
        <ele>836.61</ele>
        <time>2022-05-06T07:16:40.000Z</time>
      </trkpt>
      <trkpt lat="45.26128" lon="4.48577">
        <ele>838.94</ele>
        <time>2022-05-06T07:17:11.592Z</time>
      </trkpt>
      <trkpt lat="45.26107" lon="4.48565">
        <ele>845.77</ele>
        <time>2022-05-06T07:17:40.956Z</time>
      </trkpt>
      <trkpt lat="45.26086" lon="4.48551">
        <ele>848.11</ele>
        <time>2022-05-06T07:18:17.631Z</time>
      </trkpt>
      <trkpt lat="45.2607" lon="4.48527">
        <ele>845.89</ele>
        <time>2022-05-06T07:22:00.413Z</time>
      </trkpt>
      <trkpt lat="45.26052" lon="4.48508">
        <ele>852.11</ele>
        <time>2022-05-06T07:22:29.912Z</time>
      </trkpt>
      <trkpt lat="45.26032" lon="4.48491">
        <ele>853.19</ele>
        <time>2022-05-06T07:23:02.000Z</time>
      </trkpt>
      <trkpt lat="45.26013" lon="4.48472">
        <ele>859.2</ele>
        <time>2022-05-06T07:23:34.030Z</time>
      </trkpt>
      <trkpt lat="45.25994" lon="4.48455">
        <ele>861.3</ele>
        <time>2022-05-06T07:24:07.871Z</time>
      </trkpt>
      <trkpt lat="45.25978" lon="4.48431">
        <ele>869.93</ele>
        <time>2022-05-06T07:24:47.000Z</time>
      </trkpt>
      <trkpt lat="45.25969" lon="4.484">
        <ele>873.26</ele>
        <time>2022-05-06T07:25:22.000Z</time>
      </trkpt>
      <trkpt lat="45.25954" lon="4.48376">
        <ele>874.2</ele>
        <time>2022-05-06T07:25:59.000Z</time>
      </trkpt>
      <trkpt lat="45.25945" lon="4.48346">
        <ele>885.07</ele>
        <time>2022-05-06T07:26:33.000Z</time>
      </trkpt>
      <trkpt lat="45.25925" lon="4.48331">
        <ele>887.81</ele>
        <time>2022-05-06T07:27:06.000Z</time>
      </trkpt>
      <trkpt lat="45.2591" lon="4.48306">
        <ele>887.73</ele>
        <time>2022-05-06T07:27:43.776Z</time>
      </trkpt>
      <trkpt lat="45.25895" lon="4.48282">
        <ele>892</ele>
        <time>2022-05-06T07:28:18.692Z</time>
      </trkpt>
      <trkpt lat="45.25881" lon="4.48257">
        <ele>900.68</ele>
        <time>2022-05-06T07:28:50.929Z</time>
      </trkpt>
      <trkpt lat="45.2586" lon="4.48243">
        <ele>905.49</ele>
        <time>2022-05-06T07:29:34.673Z</time>
      </trkpt>
      <trkpt lat="45.25841" lon="4.48226">
        <ele>906.1</ele>
        <time>2022-05-06T07:30:11.808Z</time>
      </trkpt>
      <trkpt lat="45.25822" lon="4.48208">
        <ele>907.86</ele>
        <time>2022-05-06T07:30:51.950Z</time>
      </trkpt>
      <trkpt lat="45.25804" lon="4.48187">
        <ele>909.71</ele>
        <time>2022-05-06T07:31:26.000Z</time>
      </trkpt>
      <trkpt lat="45.25795" lon="4.48158">
        <ele>915.55</ele>
        <time>2022-05-06T07:31:56.000Z</time>
      </trkpt>
      <trkpt lat="45.25787" lon="4.48127">
        <ele>917.46</ele>
        <time>2022-05-06T07:32:29.000Z</time>
      </trkpt>
      <trkpt lat="45.25777" lon="4.48097">
        <ele>929.27</ele>
        <time>2022-05-06T07:32:56.034Z</time>
      </trkpt>
      <trkpt lat="45.25755" lon="4.48106">
        <ele>921.27</ele>
        <time>2022-05-06T07:36:11.970Z</time>
      </trkpt>
      <trkpt lat="45.25747" lon="4.48136">
        <ele>924.61</ele>
        <time>2022-05-06T07:36:42.909Z</time>
      </trkpt>
      <trkpt lat="45.2574" lon="4.48167">
        <ele>922.28</ele>
        <time>2022-05-06T07:37:20.000Z</time>
      </trkpt>
      <trkpt lat="45.25735" lon="4.48199">
        <ele>921.6</ele>
        <time>2022-05-06T07:37:49.993Z</time>
      </trkpt>
      <trkpt lat="45.25728" lon="4.48231">
        <ele>924.65</ele>
        <time>2022-05-06T07:38:17.000Z</time>
      </trkpt>
      <trkpt lat="45.25724" lon="4.48263">
        <ele>931.52</ele>
        <time>2022-05-06T07:38:45.813Z</time>
      </trkpt>
      <trkpt lat="45.2571" lon="4.48288">
        <ele>936.46</ele>
        <time>2022-05-06T07:39:14.876Z</time>
      </trkpt>
      <trkpt lat="45.25693" lon="4.48309">
        <ele>941.3</ele>
        <time>2022-05-06T07:39:44.000Z</time>
      </trkpt>
      <trkpt lat="45.25676" lon="4.48331">
        <ele>943.07</ele>
        <time>2022-05-06T07:40:11.549Z</time>
      </trkpt>
      <trkpt lat="45.25657" lon="4.48352">
        <ele>944.34</ele>
        <time>2022-05-06T07:40:41.834Z</time>
      </trkpt>
      <trkpt lat="45.25638" lon="4.48369">
        <ele>941.64</ele>
        <time>2022-05-06T07:41:09.612Z</time>
      </trkpt>
      <trkpt lat="45.25616" lon="4.48382">
        <ele>942.41</ele>
        <time>2022-05-06T07:41:35.671Z</time>
      </trkpt>
      <trkpt lat="45.25593" lon="4.48391">
        <ele>951.48</ele>
        <time>2022-05-06T07:42:01.855Z</time>
      </trkpt>
      <trkpt lat="45.25571" lon="4.48397">
        <ele>951.94</ele>
        <time>2022-05-06T07:42:27.636Z</time>
      </trkpt>
      <trkpt lat="45.2555" lon="4.48408">
        <ele>962.1</ele>
        <time>2022-05-06T07:42:50.889Z</time>
      </trkpt>
      <trkpt lat="45.2553" lon="4.48424">
        <ele>961.21</ele>
        <time>2022-05-06T07:43:16.709Z</time>
      </trkpt>
      <trkpt lat="45.2551" lon="4.48441">
        <ele>960.73</ele>
        <time>2022-05-06T07:43:45.688Z</time>
      </trkpt>
      <trkpt lat="45.25488" lon="4.48452">
        <ele>964.72</ele>
        <time>2022-05-06T07:44:13.955Z</time>
      </trkpt>
      <trkpt lat="45.25464" lon="4.48452">
        <ele>965.9</ele>
        <time>2022-05-06T07:44:40.955Z</time>
      </trkpt>
      <trkpt lat="45.25441" lon="4.48456">
        <ele>962.47</ele>
        <time>2022-05-06T07:45:10.568Z</time>
      </trkpt>
      <trkpt lat="45.25419" lon="4.4846">
        <ele>960.45</ele>
        <time>2022-05-06T07:45:40.000Z</time>
      </trkpt>
      <trkpt lat="45.25397" lon="4.48467">
        <ele>960.27</ele>
        <time>2022-05-06T07:46:07.000Z</time>
      </trkpt>
      <trkpt lat="45.25373" lon="4.48467">
        <ele>962.19</ele>
        <time>2022-05-06T07:47:24.090Z</time>
      </trkpt>
      <trkpt lat="45.25384" lon="4.48439">
        <ele>964.13</ele>
        <time>2022-05-06T07:48:17.793Z</time>
      </trkpt>
      <trkpt lat="45.25406" lon="4.48432">
        <ele>972.74</ele>
        <time>2022-05-06T07:49:04.497Z</time>
      </trkpt>
      <trkpt lat="45.25425" lon="4.48414">
        <ele>979.38</ele>
        <time>2022-05-06T07:49:31.000Z</time>
      </trkpt>
      <trkpt lat="45.25448" lon="4.48406">
        <ele>981.54</ele>
        <time>2022-05-06T07:49:56.000Z</time>
      </trkpt>
      <trkpt lat="45.25469" lon="4.48395">
        <ele>976.22</ele>
        <time>2022-05-06T07:50:18.000Z</time>
      </trkpt>
      <trkpt lat="45.25482" lon="4.48369">
        <ele>975.63</ele>
        <time>2022-05-06T07:52:18.671Z</time>
      </trkpt>
      <trkpt lat="45.25494" lon="4.4834">
        <ele>977.36</ele>
        <time>2022-05-06T07:52:48.755Z</time>
      </trkpt>
      <trkpt lat="45.25509" lon="4.48316">
        <ele>984.16</ele>
        <time>2022-05-06T07:53:13.000Z</time>
      </trkpt>
      <trkpt lat="45.25526" lon="4.48294">
        <ele>987.47</ele>
        <time>2022-05-06T07:53:41.775Z</time>
      </trkpt>
      <trkpt lat="45.25545" lon="4.48276">
        <ele>988.56</ele>
        <time>2022-05-06T07:54:11.628Z</time>
      </trkpt>
      <trkpt lat="45.25555" lon="4.48247">
        <ele>990.69</ele>
        <time>2022-05-06T07:54:39.896Z</time>
      </trkpt>
      <trkpt lat="45.25565" lon="4.48217">
        <ele>990.55</ele>
        <time>2022-05-06T07:55:05.514Z</time>
      </trkpt>
      <trkpt lat="45.25564" lon="4.48185">
        <ele>993.99</ele>
        <time>2022-05-06T07:55:39.000Z</time>
      </trkpt>
      <trkpt lat="45.25564" lon="4.48153">
        <ele>997.08</ele>
        <time>2022-05-06T07:56:10.000Z</time>
      </trkpt>
      <trkpt lat="45.2557" lon="4.48121">
        <ele>1003.45</ele>
        <time>2022-05-06T07:56:32.929Z</time>
      </trkpt>
      <trkpt lat="45.25563" lon="4.4809">
        <ele>1007.88</ele>
        <time>2022-05-06T07:57:04.000Z</time>
      </trkpt>
      <trkpt lat="45.25555" lon="4.4806">
        <ele>1012.76</ele>
        <time>2022-05-06T07:57:36.015Z</time>
      </trkpt>
      <trkpt lat="45.25545" lon="4.48031">
        <ele>1016.99</ele>
        <time>2022-05-06T07:58:09.000Z</time>
      </trkpt>
      <trkpt lat="45.25538" lon="4.47999">
        <ele>1024.37</ele>
        <time>2022-05-06T07:58:38.000Z</time>
      </trkpt>
      <trkpt lat="45.25522" lon="4.47974">
        <ele>1021.97</ele>
        <time>2022-05-06T07:59:09.933Z</time>
      </trkpt>
      <trkpt lat="45.25509" lon="4.47948">
        <ele>1017.77</ele>
        <time>2022-05-06T07:59:38.769Z</time>
      </trkpt>
      <trkpt lat="45.25494" lon="4.47923">
        <ele>1022.41</ele>
        <time>2022-05-06T08:00:07.000Z</time>
      </trkpt>
      <trkpt lat="45.25476" lon="4.47901">
        <ele>1031.89</ele>
        <time>2022-05-06T08:00:34.854Z</time>
      </trkpt>
      <trkpt lat="45.25457" lon="4.47882">
        <ele>1029.97</ele>
        <time>2022-05-06T08:01:06.876Z</time>
      </trkpt>
      <trkpt lat="45.25434" lon="4.47877">
        <ele>1030.52</ele>
        <time>2022-05-06T08:01:37.000Z</time>
      </trkpt>
      <trkpt lat="45.25412" lon="4.47875">
        <ele>1032.39</ele>
        <time>2022-05-06T08:02:08.993Z</time>
      </trkpt>
      <trkpt lat="45.25389" lon="4.47872">
        <ele>1034.63</ele>
        <time>2022-05-06T08:02:39.970Z</time>
      </trkpt>
      <trkpt lat="45.25366" lon="4.47877">
        <ele>1036.62</ele>
        <time>2022-05-06T08:03:06.000Z</time>
      </trkpt>
      <trkpt lat="45.25343" lon="4.4788">
        <ele>1038.06</ele>
        <time>2022-05-06T08:03:32.856Z</time>
      </trkpt>
      <trkpt lat="45.2532" lon="4.47885">
        <ele>1038.64</ele>
        <time>2022-05-06T08:04:01.000Z</time>
      </trkpt>
      <trkpt lat="45.25297" lon="4.4789">
        <ele>1036.31</ele>
        <time>2022-05-06T08:04:26.808Z</time>
      </trkpt>
      <trkpt lat="45.25272" lon="4.47895">
        <ele>1042.82</ele>
        <time>2022-05-06T08:04:52.953Z</time>
      </trkpt>
      <trkpt lat="45.2525" lon="4.47899">
        <ele>1044.3</ele>
        <time>2022-05-06T08:05:56.051Z</time>
      </trkpt>
      <trkpt lat="45.25228" lon="4.47904">
        <ele>1045.77</ele>
        <time>2022-05-06T08:06:21.850Z</time>
      </trkpt>
      <trkpt lat="45.25209" lon="4.47885">
        <ele>1045.02</ele>
        <time>2022-05-06T08:06:44.711Z</time>
      </trkpt>
      <trkpt lat="45.25207" lon="4.47853">
        <ele>1040.7</ele>
        <time>2022-05-06T08:07:35.994Z</time>
      </trkpt>
      <trkpt lat="45.25196" lon="4.47821">
        <ele>1041.91</ele>
        <time>2022-05-06T08:07:58.749Z</time>
      </trkpt>
      <trkpt lat="45.25186" lon="4.47791">
        <ele>1046.71</ele>
        <time>2022-05-06T08:08:22.156Z</time>
      </trkpt>
      <trkpt lat="45.2517" lon="4.47769">
        <ele>1050.37</ele>
        <time>2022-05-06T08:08:45.651Z</time>
      </trkpt>
      <trkpt lat="45.25148" lon="4.47755">
        <ele>1046.22</ele>
        <time>2022-05-06T08:09:08.751Z</time>
      </trkpt>
      <trkpt lat="45.25127" lon="4.47745">
        <ele>1044.63</ele>
        <time>2022-05-06T08:09:33.734Z</time>
      </trkpt>
      <trkpt lat="45.25107" lon="4.47728">
        <ele>1048.74</ele>
        <time>2022-05-06T08:09:59.832Z</time>
      </trkpt>
      <trkpt lat="45.25086" lon="4.47717">
        <ele>1054.3</ele>
        <time>2022-05-06T08:10:27.000Z</time>
      </trkpt>
      <trkpt lat="45.25065" lon="4.47705">
        <ele>1054.64</ele>
        <time>2022-05-06T08:10:54.000Z</time>
      </trkpt>
      <trkpt lat="45.25043" lon="4.47692">
        <ele>1054.66</ele>
        <time>2022-05-06T08:11:18.000Z</time>
      </trkpt>
      <trkpt lat="45.25022" lon="4.47679">
        <ele>1057.19</ele>
        <time>2022-05-06T08:11:45.000Z</time>
      </trkpt>
      <trkpt lat="45.25001" lon="4.47668">
        <ele>1057.6</ele>
        <time>2022-05-06T08:12:12.789Z</time>
      </trkpt>
      <trkpt lat="45.24978" lon="4.47661">
        <ele>1061.36</ele>
        <time>2022-05-06T08:12:40.000Z</time>
      </trkpt>
      <trkpt lat="45.24955" lon="4.47664">
        <ele>1063.72</ele>
        <time>2022-05-06T08:13:12.533Z</time>
      </trkpt>
      <trkpt lat="45.24931" lon="4.47668">
        <ele>1066.98</ele>
        <time>2022-05-06T08:13:49.629Z</time>
      </trkpt>
      <trkpt lat="45.24907" lon="4.4767">
        <ele>1064.71</ele>
        <time>2022-05-06T08:14:14.775Z</time>
      </trkpt>
      <trkpt lat="45.24884" lon="4.47673">
        <ele>1069.81</ele>
        <time>2022-05-06T08:14:40.469Z</time>
      </trkpt>
      <trkpt lat="45.24862" lon="4.47669">
        <ele>1066.87</ele>
        <time>2022-05-06T08:15:02.089Z</time>
      </trkpt>
      <trkpt lat="45.24839" lon="4.47666">
        <ele>1059.76</ele>
        <time>2022-05-06T08:15:27.610Z</time>
      </trkpt>
      <trkpt lat="45.24821" lon="4.47646">
        <ele>1059.95</ele>
        <time>2022-05-06T08:15:52.670Z</time>
      </trkpt>
      <trkpt lat="45.2483" lon="4.47616">
        <ele>1063.35</ele>
        <time>2022-05-06T08:16:12.754Z</time>
      </trkpt>
      <trkpt lat="45.24847" lon="4.47594">
        <ele>1063.49</ele>
        <time>2022-05-06T08:16:33.396Z</time>
      </trkpt>
      <trkpt lat="45.24861" lon="4.4757">
        <ele>1065.61</ele>
        <time>2022-05-06T08:16:53.095Z</time>
      </trkpt>
      <trkpt lat="45.24869" lon="4.47539">
        <ele>1067.14</ele>
        <time>2022-05-06T08:17:15.475Z</time>
      </trkpt>
      <trkpt lat="45.24888" lon="4.47523">
        <ele>1062.16</ele>
        <time>2022-05-06T08:17:41.000Z</time>
      </trkpt>
      <trkpt lat="45.24906" lon="4.47503">
        <ele>1064.33</ele>
        <time>2022-05-06T08:18:01.033Z</time>
      </trkpt>
      <trkpt lat="45.24922" lon="4.4748">
        <ele>1062.51</ele>
        <time>2022-05-06T08:18:26.956Z</time>
      </trkpt>
      <trkpt lat="45.24939" lon="4.47458">
        <ele>1062.09</ele>
        <time>2022-05-06T08:18:48.856Z</time>
      </trkpt>
      <trkpt lat="45.24956" lon="4.47437">
        <ele>1063.99</ele>
        <time>2022-05-06T08:19:11.515Z</time>
      </trkpt>
      <trkpt lat="45.24977" lon="4.47422">
        <ele>1060.86</ele>
        <time>2022-05-06T08:19:35.076Z</time>
      </trkpt>
      <trkpt lat="45.24996" lon="4.47402">
        <ele>1066.17</ele>
        <time>2022-05-06T08:19:55.132Z</time>
      </trkpt>
      <trkpt lat="45.25017" lon="4.4739">
        <ele>1071.57</ele>
        <time>2022-05-06T08:20:13.910Z</time>
      </trkpt>
      <trkpt lat="45.25037" lon="4.47373">
        <ele>1072.53</ele>
        <time>2022-05-06T08:20:32.573Z</time>
      </trkpt>
      <trkpt lat="45.25059" lon="4.47363">
        <ele>1069.45</ele>
        <time>2022-05-06T08:20:55.529Z</time>
      </trkpt>
      <trkpt lat="45.2508" lon="4.47353">
        <ele>1069</ele>
        <time>2022-05-06T08:21:21.616Z</time>
      </trkpt>
      <trkpt lat="45.25102" lon="4.47349">
        <ele>1074.31</ele>
        <time>2022-05-06T08:21:45.000Z</time>
      </trkpt>
      <trkpt lat="45.25125" lon="4.4735">
        <ele>1067.73</ele>
        <time>2022-05-06T08:22:09.650Z</time>
      </trkpt>
      <trkpt lat="45.25148" lon="4.4735">
        <ele>1072.05</ele>
        <time>2022-05-06T08:22:38.000Z</time>
      </trkpt>
      <trkpt lat="45.2517" lon="4.47355">
        <ele>1066.02</ele>
        <time>2022-05-06T08:23:01.036Z</time>
      </trkpt>
      <trkpt lat="45.25191" lon="4.47367">
        <ele>1068.52</ele>
        <time>2022-05-06T08:23:25.673Z</time>
      </trkpt>
      <trkpt lat="45.25212" lon="4.47354">
        <ele>1073.57</ele>
        <time>2022-05-06T08:23:48.092Z</time>
      </trkpt>
      <trkpt lat="45.25232" lon="4.47337">
        <ele>1078.56</ele>
        <time>2022-05-06T08:24:07.531Z</time>
      </trkpt>
      <trkpt lat="45.25252" lon="4.4732">
        <ele>1073.84</ele>
        <time>2022-05-06T08:24:28.556Z</time>
      </trkpt>
      <trkpt lat="45.25258" lon="4.47289">
        <ele>1071.99</ele>
        <time>2022-05-06T08:24:53.000Z</time>
      </trkpt>
      <trkpt lat="45.2527" lon="4.47262">
        <ele>1073.73</ele>
        <time>2022-05-06T08:25:12.000Z</time>
      </trkpt>
      <trkpt lat="45.25278" lon="4.47231">
        <ele>1077.14</ele>
        <time>2022-05-06T08:25:32.755Z</time>
      </trkpt>
      <trkpt lat="45.25284" lon="4.472">
        <ele>1078.27</ele>
        <time>2022-05-06T08:25:54.000Z</time>
      </trkpt>
      <trkpt lat="45.25289" lon="4.47167">
        <ele>1077.85</ele>
        <time>2022-05-06T08:26:14.537Z</time>
      </trkpt>
      <trkpt lat="45.2529" lon="4.47134">
        <ele>1078.62</ele>
        <time>2022-05-06T08:26:36.656Z</time>
      </trkpt>
      <trkpt lat="45.25286" lon="4.47102">
        <ele>1074.22</ele>
        <time>2022-05-06T08:26:58.814Z</time>
      </trkpt>
      <trkpt lat="45.25277" lon="4.47072">
        <ele>1079.17</ele>
        <time>2022-05-06T08:27:27.954Z</time>
      </trkpt>
      <trkpt lat="45.2527" lon="4.47041">
        <ele>1081.09</ele>
        <time>2022-05-06T08:28:03.000Z</time>
      </trkpt>
      <trkpt lat="45.2525" lon="4.47024">
        <ele>1078.06</ele>
        <time>2022-05-06T08:28:35.000Z</time>
      </trkpt>
      <trkpt lat="45.25239" lon="4.46995">
        <ele>1093.49</ele>
        <time>2022-05-06T08:29:04.000Z</time>
      </trkpt>
      <trkpt lat="45.2523" lon="4.46965">
        <ele>1090.8</ele>
        <time>2022-05-06T08:30:34.987Z</time>
      </trkpt>
      <trkpt lat="45.25229" lon="4.46933">
        <ele>1088.25</ele>
        <time>2022-05-06T08:31:08.748Z</time>
      </trkpt>
      <trkpt lat="45.25222" lon="4.46902">
        <ele>1090.23</ele>
        <time>2022-05-06T08:31:31.377Z</time>
      </trkpt>
      <trkpt lat="45.25214" lon="4.46871">
        <ele>1094.19</ele>
        <time>2022-05-06T08:31:53.000Z</time>
      </trkpt>
      <trkpt lat="45.25208" lon="4.4684">
        <ele>1091.76</ele>
        <time>2022-05-06T08:32:14.674Z</time>
      </trkpt>
      <trkpt lat="45.25208" lon="4.46808">
        <ele>1090.62</ele>
        <time>2022-05-06T08:32:38.000Z</time>
      </trkpt>
      <trkpt lat="45.25213" lon="4.46775">
        <ele>1089.26</ele>
        <time>2022-05-06T08:33:03.000Z</time>
      </trkpt>
      <trkpt lat="45.25224" lon="4.46743">
        <ele>1091.01</ele>
        <time>2022-05-06T08:33:27.669Z</time>
      </trkpt>
      <trkpt lat="45.25231" lon="4.46713">
        <ele>1090.45</ele>
        <time>2022-05-06T08:33:52.000Z</time>
      </trkpt>
      <trkpt lat="45.25227" lon="4.46681">
        <ele>1087.2</ele>
        <time>2022-05-06T08:34:17.000Z</time>
      </trkpt>
      <trkpt lat="45.25216" lon="4.46653">
        <ele>1084.55</ele>
        <time>2022-05-06T08:34:44.000Z</time>
      </trkpt>
      <trkpt lat="45.25204" lon="4.46626">
        <ele>1089.94</ele>
        <time>2022-05-06T08:35:10.000Z</time>
      </trkpt>
      <trkpt lat="45.25189" lon="4.46602">
        <ele>1094.74</ele>
        <time>2022-05-06T08:35:34.000Z</time>
      </trkpt>
      <trkpt lat="45.25174" lon="4.46578">
        <ele>1095.24</ele>
        <time>2022-05-06T08:35:59.000Z</time>
      </trkpt>
      <trkpt lat="45.25155" lon="4.46559">
        <ele>1094.01</ele>
        <time>2022-05-06T08:36:25.835Z</time>
      </trkpt>
      <trkpt lat="45.25135" lon="4.46541">
        <ele>1101.95</ele>
        <time>2022-05-06T08:36:49.000Z</time>
      </trkpt>
      <trkpt lat="45.25116" lon="4.4652">
        <ele>1100.41</ele>
        <time>2022-05-06T08:40:08.136Z</time>
      </trkpt>
      <trkpt lat="45.25098" lon="4.465">
        <ele>1094.2</ele>
        <time>2022-05-06T08:40:35.769Z</time>
      </trkpt>
      <trkpt lat="45.2508" lon="4.46481">
        <ele>1095.88</ele>
        <time>2022-05-06T08:40:56.053Z</time>
      </trkpt>
      <trkpt lat="45.25061" lon="4.46463">
        <ele>1099.19</ele>
        <time>2022-05-06T08:41:17.031Z</time>
      </trkpt>
      <trkpt lat="45.25044" lon="4.46442">
        <ele>1096.35</ele>
        <time>2022-05-06T08:41:39.000Z</time>
      </trkpt>
      <trkpt lat="45.25024" lon="4.46425">
        <ele>1096.31</ele>
        <time>2022-05-06T08:41:58.628Z</time>
      </trkpt>
      <trkpt lat="45.25007" lon="4.46405">
        <ele>1086.16</ele>
        <time>2022-05-06T08:42:22.000Z</time>
      </trkpt>
      <trkpt lat="45.25007" lon="4.46372">
        <ele>1084.35</ele>
        <time>2022-05-06T08:42:47.112Z</time>
      </trkpt>
      <trkpt lat="45.25016" lon="4.46342">
        <ele>1081.33</ele>
        <time>2022-05-06T08:43:23.696Z</time>
      </trkpt>
      <trkpt lat="45.2503" lon="4.46317">
        <ele>1075.41</ele>
        <time>2022-05-06T08:43:47.073Z</time>
      </trkpt>
      <trkpt lat="45.25038" lon="4.46286">
        <ele>1076.44</ele>
        <time>2022-05-06T08:44:13.515Z</time>
      </trkpt>
      <trkpt lat="45.25041" lon="4.46254">
        <ele>1078.47</ele>
        <time>2022-05-06T08:44:36.076Z</time>
      </trkpt>
      <trkpt lat="45.25047" lon="4.46223">
        <ele>1074.05</ele>
        <time>2022-05-06T08:45:00.673Z</time>
      </trkpt>
      <trkpt lat="45.25054" lon="4.46192">
        <ele>1071.66</ele>
        <time>2022-05-06T08:45:23.437Z</time>
      </trkpt>
      <trkpt lat="45.2507" lon="4.46168">
        <ele>1065.66</ele>
        <time>2022-05-06T08:45:45.613Z</time>
      </trkpt>
      <trkpt lat="45.25085" lon="4.46144">
        <ele>1063.74</ele>
        <time>2022-05-06T08:46:08.588Z</time>
      </trkpt>
      <trkpt lat="45.25074" lon="4.46115">
        <ele>1072.91</ele>
        <time>2022-05-06T08:47:38.908Z</time>
      </trkpt>
      <trkpt lat="45.25055" lon="4.46134">
        <ele>1073.65</ele>
        <time>2022-05-06T08:49:53.000Z</time>
      </trkpt>
      <trkpt lat="45.25034" lon="4.46147">
        <ele>1074.89</ele>
        <time>2022-05-06T08:50:31.000Z</time>
      </trkpt>
      <trkpt lat="45.25013" lon="4.46159">
        <ele>1075.02</ele>
        <time>2022-05-06T08:50:59.934Z</time>
      </trkpt>
      <trkpt lat="45.2499" lon="4.46169">
        <ele>1090.26</ele>
        <time>2022-05-06T08:54:21.751Z</time>
      </trkpt>
      <trkpt lat="45.24968" lon="4.46174">
        <ele>1095.44</ele>
        <time>2022-05-06T08:54:49.000Z</time>
      </trkpt>
      <trkpt lat="45.24945" lon="4.46175">
        <ele>1090.18</ele>
        <time>2022-05-06T08:55:21.000Z</time>
      </trkpt>
      <trkpt lat="45.24923" lon="4.46162">
        <ele>1100.04</ele>
        <time>2022-05-06T08:56:09.000Z</time>
      </trkpt>
      <trkpt lat="45.24902" lon="4.46152">
        <ele>1104.92</ele>
        <time>2022-05-06T08:56:35.826Z</time>
      </trkpt>
      <trkpt lat="45.24883" lon="4.46131">
        <ele>1105.46</ele>
        <time>2022-05-06T08:56:58.973Z</time>
      </trkpt>
      <trkpt lat="45.24867" lon="4.46106">
        <ele>1107.88</ele>
        <time>2022-05-06T08:57:23.629Z</time>
      </trkpt>
      <trkpt lat="45.24859" lon="4.46076">
        <ele>1108.27</ele>
        <time>2022-05-06T08:57:51.000Z</time>
      </trkpt>
      <trkpt lat="45.24849" lon="4.46047">
        <ele>1107.88</ele>
        <time>2022-05-06T08:58:25.870Z</time>
      </trkpt>
      <trkpt lat="45.24832" lon="4.46025">
        <ele>1111.25</ele>
        <time>2022-05-06T08:58:50.949Z</time>
      </trkpt>
      <trkpt lat="45.24813" lon="4.46008">
        <ele>1113.27</ele>
        <time>2022-05-06T08:59:18.773Z</time>
      </trkpt>
      <trkpt lat="45.24793" lon="4.4599">
        <ele>1116.2</ele>
        <time>2022-05-06T08:59:49.634Z</time>
      </trkpt>
      <trkpt lat="45.24772" lon="4.45977">
        <ele>1119.29</ele>
        <time>2022-05-06T09:00:20.000Z</time>
      </trkpt>
      <trkpt lat="45.2475" lon="4.45968">
        <ele>1122.47</ele>
        <time>2022-05-06T09:00:48.850Z</time>
      </trkpt>
      <trkpt lat="45.24727" lon="4.45961">
        <ele>1124.76</ele>
        <time>2022-05-06T09:01:19.000Z</time>
      </trkpt>
      <trkpt lat="45.24705" lon="4.45956">
        <ele>1121.36</ele>
        <time>2022-05-06T09:01:57.831Z</time>
      </trkpt>
      <trkpt lat="45.24682" lon="4.45951">
        <ele>1126.28</ele>
        <time>2022-05-06T09:02:25.850Z</time>
      </trkpt>
      <trkpt lat="45.24659" lon="4.4595">
        <ele>1130.64</ele>
        <time>2022-05-06T09:02:55.548Z</time>
      </trkpt>
      <trkpt lat="45.24636" lon="4.45957">
        <ele>1129.55</ele>
        <time>2022-05-06T09:03:20.000Z</time>
      </trkpt>
      <trkpt lat="45.24615" lon="4.45969">
        <ele>1132.97</ele>
        <time>2022-05-06T09:03:43.650Z</time>
      </trkpt>
      <trkpt lat="45.24592" lon="4.45972">
        <ele>1131.1</ele>
        <time>2022-05-06T09:04:39.791Z</time>
      </trkpt>
      <trkpt lat="45.2457" lon="4.45982">
        <ele>1133.72</ele>
        <time>2022-05-06T09:05:00.000Z</time>
      </trkpt>
      <trkpt lat="45.2455" lon="4.45999">
        <ele>1138.08</ele>
        <time>2022-05-06T09:05:16.713Z</time>
      </trkpt>
      <trkpt lat="45.24533" lon="4.46021">
        <ele>1143.26</ele>
        <time>2022-05-06T09:05:50.454Z</time>
      </trkpt>
      <trkpt lat="45.24514" lon="4.46039">
        <ele>1142.2</ele>
        <time>2022-05-06T09:06:08.991Z</time>
      </trkpt>
      <trkpt lat="45.24492" lon="4.46048">
        <ele>1147</ele>
        <time>2022-05-06T09:06:29.614Z</time>
      </trkpt>
      <trkpt lat="45.24469" lon="4.46045">
        <ele>1147</ele>
        <time>2022-05-06T09:06:54.595Z</time>
      </trkpt>
      <trkpt lat="45.24448" lon="4.46031">
        <ele>1149.04</ele>
        <time>2022-05-06T09:07:11.067Z</time>
      </trkpt>
      <trkpt lat="45.24426" lon="4.46023">
        <ele>1148.9</ele>
        <time>2022-05-06T09:07:33.000Z</time>
      </trkpt>
      <trkpt lat="45.24405" lon="4.46011">
        <ele>1150.75</ele>
        <time>2022-05-06T09:07:54.116Z</time>
      </trkpt>
      <trkpt lat="45.24384" lon="4.46">
        <ele>1145.92</ele>
        <time>2022-05-06T09:08:14.651Z</time>
      </trkpt>
      <trkpt lat="45.24361" lon="4.45987">
        <ele>1146.3</ele>
        <time>2022-05-06T09:08:35.552Z</time>
      </trkpt>
      <trkpt lat="45.2434" lon="4.45976">
        <ele>1151.53</ele>
        <time>2022-05-06T09:09:04.731Z</time>
      </trkpt>
      <trkpt lat="45.24316" lon="4.45974">
        <ele>1156.39</ele>
        <time>2022-05-06T09:09:29.000Z</time>
      </trkpt>
      <trkpt lat="45.24294" lon="4.45969">
        <ele>1158.8</ele>
        <time>2022-05-06T09:10:05.000Z</time>
      </trkpt>
      <trkpt lat="45.24272" lon="4.45978">
        <ele>1160.13</ele>
        <time>2022-05-06T09:10:35.794Z</time>
      </trkpt>
      <trkpt lat="45.2425" lon="4.45982">
        <ele>1164.51</ele>
        <time>2022-05-06T09:11:07.000Z</time>
      </trkpt>
      <trkpt lat="45.24227" lon="4.45977">
        <ele>1165.15</ele>
        <time>2022-05-06T09:11:44.000Z</time>
      </trkpt>
      <trkpt lat="45.24204" lon="4.4597">
        <ele>1168.17</ele>
        <time>2022-05-06T09:12:05.695Z</time>
      </trkpt>
      <trkpt lat="45.24183" lon="4.45956">
        <ele>1164.85</ele>
        <time>2022-05-06T09:12:37.871Z</time>
      </trkpt>
      <trkpt lat="45.24164" lon="4.45938">
        <ele>1156.04</ele>
        <time>2022-05-06T09:13:10.134Z</time>
      </trkpt>
      <trkpt lat="45.24144" lon="4.45922">
        <ele>1154.99</ele>
        <time>2022-05-06T09:13:35.549Z</time>
      </trkpt>
      <trkpt lat="45.24123" lon="4.45905">
        <ele>1155.05</ele>
        <time>2022-05-06T09:13:59.733Z</time>
      </trkpt>
      <trkpt lat="45.24102" lon="4.45892">
        <ele>1152.16</ele>
        <time>2022-05-06T09:14:21.815Z</time>
      </trkpt>
      <trkpt lat="45.24083" lon="4.45873">
        <ele>1153.08</ele>
        <time>2022-05-06T09:14:46.893Z</time>
      </trkpt>
      <trkpt lat="45.24074" lon="4.45843">
        <ele>1160.73</ele>
        <time>2022-05-06T09:15:14.000Z</time>
      </trkpt>
      <trkpt lat="45.24059" lon="4.45819">
        <ele>1170.61</ele>
        <time>2022-05-06T09:15:34.831Z</time>
      </trkpt>
      <trkpt lat="45.24036" lon="4.45812">
        <ele>1169.08</ele>
        <time>2022-05-06T09:15:58.948Z</time>
      </trkpt>
      <trkpt lat="45.24013" lon="4.45809">
        <ele>1172.04</ele>
        <time>2022-05-06T09:17:04.000Z</time>
      </trkpt>
      <trkpt lat="45.23993" lon="4.45795">
        <ele>1165.35</ele>
        <time>2022-05-06T09:17:35.000Z</time>
      </trkpt>
      <trkpt lat="45.23973" lon="4.45777">
        <ele>1160.11</ele>
        <time>2022-05-06T09:18:04.000Z</time>
      </trkpt>
      <trkpt lat="45.23952" lon="4.45763">
        <ele>1163.96</ele>
        <time>2022-05-06T09:18:32.000Z</time>
      </trkpt>
      <trkpt lat="45.23937" lon="4.45739">
        <ele>1166.73</ele>
        <time>2022-05-06T09:18:58.000Z</time>
      </trkpt>
      <trkpt lat="45.2392" lon="4.45717">
        <ele>1169.49</ele>
        <time>2022-05-06T09:19:39.898Z</time>
      </trkpt>
      <trkpt lat="45.23903" lon="4.45697">
        <ele>1184.08</ele>
        <time>2022-05-06T09:20:14.935Z</time>
      </trkpt>
      <trkpt lat="45.23885" lon="4.45677">
        <ele>1193.22</ele>
        <time>2022-05-06T09:20:44.000Z</time>
      </trkpt>
      <trkpt lat="45.23863" lon="4.45669">
        <ele>1207.26</ele>
        <time>2022-05-06T09:21:47.000Z</time>
      </trkpt>
      <trkpt lat="45.23843" lon="4.45653">
        <ele>1202.27</ele>
        <time>2022-05-06T09:22:15.695Z</time>
      </trkpt>
      <trkpt lat="45.23823" lon="4.45634">
        <ele>1201.72</ele>
        <time>2022-05-06T09:22:46.813Z</time>
      </trkpt>
      <trkpt lat="45.23805" lon="4.45615">
        <ele>1206.11</ele>
        <time>2022-05-06T09:23:18.000Z</time>
      </trkpt>
      <trkpt lat="45.23789" lon="4.45592">
        <ele>1201.77</ele>
        <time>2022-05-06T09:23:45.816Z</time>
      </trkpt>
      <trkpt lat="45.23774" lon="4.45567">
        <ele>1207.79</ele>
        <time>2022-05-06T09:24:15.870Z</time>
      </trkpt>
      <trkpt lat="45.23758" lon="4.45544">
        <ele>1200.61</ele>
        <time>2022-05-06T09:24:42.000Z</time>
      </trkpt>
      <trkpt lat="45.23744" lon="4.45519">
        <ele>1202.56</ele>
        <time>2022-05-06T09:25:05.814Z</time>
      </trkpt>
      <trkpt lat="45.23724" lon="4.45502">
        <ele>1208.52</ele>
        <time>2022-05-06T09:25:31.000Z</time>
      </trkpt>
      <trkpt lat="45.23703" lon="4.45485">
        <ele>1205.37</ele>
        <time>2022-05-06T09:25:50.727Z</time>
      </trkpt>
      <trkpt lat="45.23684" lon="4.45468">
        <ele>1203.58</ele>
        <time>2022-05-06T09:26:14.000Z</time>
      </trkpt>
      <trkpt lat="45.23666" lon="4.45448">
        <ele>1205.9</ele>
        <time>2022-05-06T09:26:35.073Z</time>
      </trkpt>
      <trkpt lat="45.23649" lon="4.45424">
        <ele>1208.12</ele>
        <time>2022-05-06T09:28:01.000Z</time>
      </trkpt>
      <trkpt lat="45.2363" lon="4.45402">
        <ele>1212.25</ele>
        <time>2022-05-06T09:28:21.029Z</time>
      </trkpt>
      <trkpt lat="45.23609" lon="4.45389">
        <ele>1221.04</ele>
        <time>2022-05-06T09:28:41.000Z</time>
      </trkpt>
      <trkpt lat="45.23586" lon="4.45385">
        <ele>1216.18</ele>
        <time>2022-05-06T09:29:01.169Z</time>
      </trkpt>
      <trkpt lat="45.23564" lon="4.45377">
        <ele>1213.49</ele>
        <time>2022-05-06T09:29:22.504Z</time>
      </trkpt>
      <trkpt lat="45.23541" lon="4.45368">
        <ele>1216.12</ele>
        <time>2022-05-06T09:29:44.612Z</time>
      </trkpt>
      <trkpt lat="45.23518" lon="4.45357">
        <ele>1215.25</ele>
        <time>2022-05-06T09:30:04.128Z</time>
      </trkpt>
      <trkpt lat="45.23497" lon="4.45344">
        <ele>1217.23</ele>
        <time>2022-05-06T09:30:26.491Z</time>
      </trkpt>
      <trkpt lat="45.23475" lon="4.45334">
        <ele>1210.85</ele>
        <time>2022-05-06T09:32:57.636Z</time>
      </trkpt>
      <trkpt lat="45.23454" lon="4.4532">
        <ele>1208.57</ele>
        <time>2022-05-06T09:33:22.033Z</time>
      </trkpt>
      <trkpt lat="45.23432" lon="4.45318">
        <ele>1201.57</ele>
        <time>2022-05-06T09:33:47.113Z</time>
      </trkpt>
      <trkpt lat="45.2341" lon="4.4531">
        <ele>1199.91</ele>
        <time>2022-05-06T09:34:08.000Z</time>
      </trkpt>
      <trkpt lat="45.23387" lon="4.4531">
        <ele>1197.2</ele>
        <time>2022-05-06T09:34:30.651Z</time>
      </trkpt>
      <trkpt lat="45.23364" lon="4.45307">
        <ele>1198.03</ele>
        <time>2022-05-06T09:34:55.000Z</time>
      </trkpt>
      <trkpt lat="45.23341" lon="4.45314">
        <ele>1198.13</ele>
        <time>2022-05-06T09:35:22.950Z</time>
      </trkpt>
      <trkpt lat="45.23319" lon="4.45312">
        <ele>1202.81</ele>
        <time>2022-05-06T09:35:42.055Z</time>
      </trkpt>
      <trkpt lat="45.23299" lon="4.45296">
        <ele>1200.3</ele>
        <time>2022-05-06T09:36:00.909Z</time>
      </trkpt>
      <trkpt lat="45.23278" lon="4.45285">
        <ele>1200.32</ele>
        <time>2022-05-06T09:36:21.160Z</time>
      </trkpt>
      <trkpt lat="45.23256" lon="4.45278">
        <ele>1195.67</ele>
        <time>2022-05-06T09:36:44.553Z</time>
      </trkpt>
      <trkpt lat="45.23232" lon="4.45274">
        <ele>1195.22</ele>
        <time>2022-05-06T09:37:07.615Z</time>
      </trkpt>
      <trkpt lat="45.23211" lon="4.4526">
        <ele>1189.01</ele>
        <time>2022-05-06T09:37:28.669Z</time>
      </trkpt>
      <trkpt lat="45.23189" lon="4.45252">
        <ele>1187.71</ele>
        <time>2022-05-06T09:37:49.973Z</time>
      </trkpt>
      <trkpt lat="45.23167" lon="4.45244">
        <ele>1193.28</ele>
        <time>2022-05-06T09:38:08.971Z</time>
      </trkpt>
      <trkpt lat="45.23144" lon="4.4524">
        <ele>1194.45</ele>
        <time>2022-05-06T09:38:31.408Z</time>
      </trkpt>
      <trkpt lat="45.23123" lon="4.45229">
        <ele>1192.82</ele>
        <time>2022-05-06T09:38:51.472Z</time>
      </trkpt>
      <trkpt lat="45.23101" lon="4.45214">
        <ele>1192.99</ele>
        <time>2022-05-06T09:39:13.650Z</time>
      </trkpt>
      <trkpt lat="45.23079" lon="4.45204">
        <ele>1192</ele>
        <time>2022-05-06T09:39:33.657Z</time>
      </trkpt>
      <trkpt lat="45.23057" lon="4.45196">
        <ele>1187.84</ele>
        <time>2022-05-06T09:39:58.000Z</time>
      </trkpt>
      <trkpt lat="45.23034" lon="4.45188">
        <ele>1185.36</ele>
        <time>2022-05-06T09:40:20.557Z</time>
      </trkpt>
      <trkpt lat="45.23011" lon="4.45185">
        <ele>1181.8</ele>
        <time>2022-05-06T09:40:43.000Z</time>
      </trkpt>
      <trkpt lat="45.22989" lon="4.45186">
        <ele>1179.13</ele>
        <time>2022-05-06T09:41:03.000Z</time>
      </trkpt>
      <trkpt lat="45.22966" lon="4.45188">
        <ele>1178.8</ele>
        <time>2022-05-06T09:41:21.969Z</time>
      </trkpt>
      <trkpt lat="45.22943" lon="4.45187">
        <ele>1178.12</ele>
        <time>2022-05-06T09:41:43.051Z</time>
      </trkpt>
      <trkpt lat="45.22921" lon="4.45196">
        <ele>1178.57</ele>
        <time>2022-05-06T09:42:02.088Z</time>
      </trkpt>
      <trkpt lat="45.22899" lon="4.452">
        <ele>1175.06</ele>
        <time>2022-05-06T09:42:22.114Z</time>
      </trkpt>
      <trkpt lat="45.22876" lon="4.45203">
        <ele>1176.33</ele>
        <time>2022-05-06T09:43:01.416Z</time>
      </trkpt>
      <trkpt lat="45.22854" lon="4.45207">
        <ele>1177.36</ele>
        <time>2022-05-06T09:43:21.000Z</time>
      </trkpt>
      <trkpt lat="45.22832" lon="4.45215">
        <ele>1180.34</ele>
        <time>2022-05-06T09:43:40.000Z</time>
      </trkpt>
      <trkpt lat="45.22809" lon="4.45224">
        <ele>1178.67</ele>
        <time>2022-05-06T09:43:58.035Z</time>
      </trkpt>
      <trkpt lat="45.22786" lon="4.45234">
        <ele>1178.14</ele>
        <time>2022-05-06T09:44:17.976Z</time>
      </trkpt>
      <trkpt lat="45.22765" lon="4.45246">
        <ele>1177.31</ele>
        <time>2022-05-06T09:44:38.097Z</time>
      </trkpt>
      <trkpt lat="45.22745" lon="4.45262">
        <ele>1179.34</ele>
        <time>2022-05-06T09:44:57.796Z</time>
      </trkpt>
      <trkpt lat="45.22725" lon="4.45277">
        <ele>1178.28</ele>
        <time>2022-05-06T09:45:19.000Z</time>
      </trkpt>
      <trkpt lat="45.22703" lon="4.45285">
        <ele>1176.96</ele>
        <time>2022-05-06T09:45:40.000Z</time>
      </trkpt>
      <trkpt lat="45.22681" lon="4.45296">
        <ele>1176.79</ele>
        <time>2022-05-06T09:46:00.000Z</time>
      </trkpt>
      <trkpt lat="45.22661" lon="4.4531">
        <ele>1176.72</ele>
        <time>2022-05-06T09:46:19.000Z</time>
      </trkpt>
      <trkpt lat="45.2264" lon="4.45321">
        <ele>1176.16</ele>
        <time>2022-05-06T09:46:38.134Z</time>
      </trkpt>
      <trkpt lat="45.22619" lon="4.45335">
        <ele>1175.08</ele>
        <time>2022-05-06T09:46:56.653Z</time>
      </trkpt>
      <trkpt lat="45.22601" lon="4.45354">
        <ele>1173.8</ele>
        <time>2022-05-06T09:47:16.313Z</time>
      </trkpt>
      <trkpt lat="45.22582" lon="4.45372">
        <ele>1173.18</ele>
        <time>2022-05-06T09:47:36.693Z</time>
      </trkpt>
      <trkpt lat="45.22565" lon="4.45394">
        <ele>1172.26</ele>
        <time>2022-05-06T09:47:55.673Z</time>
      </trkpt>
      <trkpt lat="45.22546" lon="4.45412">
        <ele>1170.15</ele>
        <time>2022-05-06T09:48:15.593Z</time>
      </trkpt>
      <trkpt lat="45.22528" lon="4.45432">
        <ele>1169.24</ele>
        <time>2022-05-06T09:48:36.051Z</time>
      </trkpt>
      <trkpt lat="45.22509" lon="4.45452">
        <ele>1167.03</ele>
        <time>2022-05-06T09:52:05.471Z</time>
      </trkpt>
      <trkpt lat="45.22492" lon="4.45472">
        <ele>1164.69</ele>
        <time>2022-05-06T09:52:26.408Z</time>
      </trkpt>
      <trkpt lat="45.22471" lon="4.45489">
        <ele>1163.25</ele>
        <time>2022-05-06T09:52:49.708Z</time>
      </trkpt>
      <trkpt lat="45.22454" lon="4.4551">
        <ele>1161.91</ele>
        <time>2022-05-06T09:53:15.000Z</time>
      </trkpt>
      <trkpt lat="45.22433" lon="4.45529">
        <ele>1158.92</ele>
        <time>2022-05-06T09:53:38.056Z</time>
      </trkpt>
      <trkpt lat="45.22411" lon="4.45519">
        <ele>1156.44</ele>
        <time>2022-05-06T09:54:04.073Z</time>
      </trkpt>
      <trkpt lat="45.22389" lon="4.45517">
        <ele>1153.54</ele>
        <time>2022-05-06T09:54:29.132Z</time>
      </trkpt>
      <trkpt lat="45.22376" lon="4.45544">
        <ele>1149.15</ele>
        <time>2022-05-06T09:54:51.000Z</time>
      </trkpt>
      <trkpt lat="45.22354" lon="4.45535">
        <ele>1152.43</ele>
        <time>2022-05-06T09:59:44.000Z</time>
      </trkpt>
      <trkpt lat="45.22369" lon="4.4556">
        <ele>1152.43</ele>
        <time>2022-05-06T11:04:36.596Z</time>
      </trkpt>
      <trkpt lat="45.22347" lon="4.45566">
        <ele>1146.83</ele>
        <time>2022-05-06T11:04:59.055Z</time>
      </trkpt>
      <trkpt lat="45.22331" lon="4.45543">
        <ele>1145.94</ele>
        <time>2022-05-06T11:05:23.000Z</time>
      </trkpt>
      <trkpt lat="45.2231" lon="4.45557">
        <ele>1148.31</ele>
        <time>2022-05-06T11:14:33.000Z</time>
      </trkpt>
      <trkpt lat="45.22289" lon="4.45544">
        <ele>1146.66</ele>
        <time>2022-05-06T11:15:04.831Z</time>
      </trkpt>
      <trkpt lat="45.22268" lon="4.45531">
        <ele>1140.32</ele>
        <time>2022-05-06T11:15:29.000Z</time>
      </trkpt>
      <trkpt lat="45.22248" lon="4.45514">
        <ele>1140.11</ele>
        <time>2022-05-06T11:15:53.000Z</time>
      </trkpt>
      <trkpt lat="45.22228" lon="4.45497">
        <ele>1136.99</ele>
        <time>2022-05-06T11:16:16.628Z</time>
      </trkpt>
      <trkpt lat="45.22209" lon="4.45479">
        <ele>1137.35</ele>
        <time>2022-05-06T11:16:37.827Z</time>
      </trkpt>
      <trkpt lat="45.22193" lon="4.45456">
        <ele>1135.68</ele>
        <time>2022-05-06T11:17:31.000Z</time>
      </trkpt>
      <trkpt lat="45.22181" lon="4.45429">
        <ele>1134.94</ele>
        <time>2022-05-06T11:17:47.333Z</time>
      </trkpt>
      <trkpt lat="45.22168" lon="4.45401">
        <ele>1133.88</ele>
        <time>2022-05-06T11:18:07.035Z</time>
      </trkpt>
      <trkpt lat="45.2216" lon="4.45371">
        <ele>1131.89</ele>
        <time>2022-05-06T11:18:25.728Z</time>
      </trkpt>
      <trkpt lat="45.22147" lon="4.45344">
        <ele>1131.63</ele>
        <time>2022-05-06T11:18:44.069Z</time>
      </trkpt>
      <trkpt lat="45.22127" lon="4.45327">
        <ele>1129.47</ele>
        <time>2022-05-06T11:19:03.712Z</time>
      </trkpt>
      <trkpt lat="45.22103" lon="4.45325">
        <ele>1128.02</ele>
        <time>2022-05-06T11:19:28.837Z</time>
      </trkpt>
      <trkpt lat="45.22079" lon="4.45332">
        <ele>1126.18</ele>
        <time>2022-05-06T11:19:48.799Z</time>
      </trkpt>
      <trkpt lat="45.22057" lon="4.45342">
        <ele>1123.92</ele>
        <time>2022-05-06T11:20:08.693Z</time>
      </trkpt>
      <trkpt lat="45.22034" lon="4.45347">
        <ele>1124.39</ele>
        <time>2022-05-06T11:20:29.000Z</time>
      </trkpt>
      <trkpt lat="45.22012" lon="4.45338">
        <ele>1124.84</ele>
        <time>2022-05-06T11:20:46.532Z</time>
      </trkpt>
      <trkpt lat="45.21989" lon="4.45328">
        <ele>1125.52</ele>
        <time>2022-05-06T11:21:05.033Z</time>
      </trkpt>
      <trkpt lat="45.21966" lon="4.45322">
        <ele>1126.73</ele>
        <time>2022-05-06T11:21:25.000Z</time>
      </trkpt>
      <trkpt lat="45.21944" lon="4.45319">
        <ele>1127.29</ele>
        <time>2022-05-06T11:21:42.555Z</time>
      </trkpt>
      <trkpt lat="45.21921" lon="4.45318">
        <ele>1126.55</ele>
        <time>2022-05-06T11:21:59.998Z</time>
      </trkpt>
      <trkpt lat="45.21898" lon="4.45319">
        <ele>1126.02</ele>
        <time>2022-05-06T11:22:19.411Z</time>
      </trkpt>
      <trkpt lat="45.21876" lon="4.45321">
        <ele>1125.43</ele>
        <time>2022-05-06T11:22:37.672Z</time>
      </trkpt>
      <trkpt lat="45.21853" lon="4.45321">
        <ele>1124.62</ele>
        <time>2022-05-06T11:22:55.281Z</time>
      </trkpt>
      <trkpt lat="45.2183" lon="4.45321">
        <ele>1124.6</ele>
        <time>2022-05-06T11:23:13.320Z</time>
      </trkpt>
      <trkpt lat="45.21808" lon="4.4532">
        <ele>1124.76</ele>
        <time>2022-05-06T11:23:30.332Z</time>
      </trkpt>
      <trkpt lat="45.21785" lon="4.45316">
        <ele>1124.32</ele>
        <time>2022-05-06T11:23:49.034Z</time>
      </trkpt>
      <trkpt lat="45.21763" lon="4.45314">
        <ele>1124.63</ele>
        <time>2022-05-06T11:24:06.681Z</time>
      </trkpt>
      <trkpt lat="45.2174" lon="4.45306">
        <ele>1122.88</ele>
        <time>2022-05-06T11:24:25.977Z</time>
      </trkpt>
      <trkpt lat="45.21719" lon="4.45293">
        <ele>1121.14</ele>
        <time>2022-05-06T11:24:46.958Z</time>
      </trkpt>
      <trkpt lat="45.21699" lon="4.45277">
        <ele>1118.12</ele>
        <time>2022-05-06T11:25:06.159Z</time>
      </trkpt>
      <trkpt lat="45.21677" lon="4.45264">
        <ele>1115.41</ele>
        <time>2022-05-06T11:25:26.351Z</time>
      </trkpt>
      <trkpt lat="45.21656" lon="4.4525">
        <ele>1114.76</ele>
        <time>2022-05-06T11:25:47.000Z</time>
      </trkpt>
      <trkpt lat="45.21634" lon="4.45238">
        <ele>1114.84</ele>
        <time>2022-05-06T11:26:03.958Z</time>
      </trkpt>
      <trkpt lat="45.21614" lon="4.45224">
        <ele>1113.02</ele>
        <time>2022-05-06T11:26:36.387Z</time>
      </trkpt>
      <trkpt lat="45.21592" lon="4.45213">
        <ele>1111.73</ele>
        <time>2022-05-06T11:26:55.552Z</time>
      </trkpt>
      <trkpt lat="45.21572" lon="4.45199">
        <ele>1110.4</ele>
        <time>2022-05-06T11:27:17.000Z</time>
      </trkpt>
      <trkpt lat="45.21551" lon="4.45187">
        <ele>1108.11</ele>
        <time>2022-05-06T11:27:34.051Z</time>
      </trkpt>
      <trkpt lat="45.21529" lon="4.45173">
        <ele>1106.97</ele>
        <time>2022-05-06T11:27:52.147Z</time>
      </trkpt>
      <trkpt lat="45.21508" lon="4.45158">
        <ele>1107.12</ele>
        <time>2022-05-06T11:28:11.147Z</time>
      </trkpt>
      <trkpt lat="45.21488" lon="4.45145">
        <ele>1108.52</ele>
        <time>2022-05-06T11:28:33.000Z</time>
      </trkpt>
      <trkpt lat="45.21467" lon="4.4513">
        <ele>1108</ele>
        <time>2022-05-06T11:28:50.511Z</time>
      </trkpt>
      <trkpt lat="45.21447" lon="4.45116">
        <ele>1107.07</ele>
        <time>2022-05-06T11:29:09.569Z</time>
      </trkpt>
      <trkpt lat="45.21428" lon="4.45098">
        <ele>1108.43</ele>
        <time>2022-05-06T11:29:28.636Z</time>
      </trkpt>
      <trkpt lat="45.21413" lon="4.45074">
        <ele>1105.81</ele>
        <time>2022-05-06T11:29:47.000Z</time>
      </trkpt>
      <trkpt lat="45.21395" lon="4.45053">
        <ele>1107.31</ele>
        <time>2022-05-06T11:30:07.000Z</time>
      </trkpt>
      <trkpt lat="45.21382" lon="4.45025">
        <ele>1107.44</ele>
        <time>2022-05-06T11:30:26.000Z</time>
      </trkpt>
      <trkpt lat="45.2137" lon="4.44998">
        <ele>1106.88</ele>
        <time>2022-05-06T11:30:45.000Z</time>
      </trkpt>
      <trkpt lat="45.21358" lon="4.4497">
        <ele>1107.39</ele>
        <time>2022-05-06T11:31:01.829Z</time>
      </trkpt>
      <trkpt lat="45.21345" lon="4.44943">
        <ele>1110.16</ele>
        <time>2022-05-06T11:31:20.396Z</time>
      </trkpt>
      <trkpt lat="45.21335" lon="4.44913">
        <ele>1108.71</ele>
        <time>2022-05-06T11:31:37.647Z</time>
      </trkpt>
      <trkpt lat="45.21324" lon="4.44884">
        <ele>1106.22</ele>
        <time>2022-05-06T11:31:58.000Z</time>
      </trkpt>
      <trkpt lat="45.21311" lon="4.44857">
        <ele>1104.25</ele>
        <time>2022-05-06T11:32:22.909Z</time>
      </trkpt>
      <trkpt lat="45.21297" lon="4.4483">
        <ele>1100.12</ele>
        <time>2022-05-06T11:32:44.000Z</time>
      </trkpt>
      <trkpt lat="45.21285" lon="4.44803">
        <ele>1097.41</ele>
        <time>2022-05-06T11:33:02.495Z</time>
      </trkpt>
      <trkpt lat="45.21274" lon="4.44775">
        <ele>1100.81</ele>
        <time>2022-05-06T11:33:21.000Z</time>
      </trkpt>
      <trkpt lat="45.21261" lon="4.44746">
        <ele>1098.96</ele>
        <time>2022-05-06T11:33:40.156Z</time>
      </trkpt>
      <trkpt lat="45.21249" lon="4.4472">
        <ele>1096.85</ele>
        <time>2022-05-06T11:34:00.396Z</time>
      </trkpt>
      <trkpt lat="45.21239" lon="4.44691">
        <ele>1098.71</ele>
        <time>2022-05-06T11:34:19.270Z</time>
      </trkpt>
      <trkpt lat="45.21224" lon="4.44667">
        <ele>1100.37</ele>
        <time>2022-05-06T11:34:39.000Z</time>
      </trkpt>
      <trkpt lat="45.21209" lon="4.4464">
        <ele>1097.2</ele>
        <time>2022-05-06T11:34:55.695Z</time>
      </trkpt>
      <trkpt lat="45.21194" lon="4.44615">
        <ele>1103</ele>
        <time>2022-05-06T11:35:13.715Z</time>
      </trkpt>
      <trkpt lat="45.2118" lon="4.4459">
        <ele>1096.18</ele>
        <time>2022-05-06T11:35:33.312Z</time>
      </trkpt>
      <trkpt lat="45.21164" lon="4.44566">
        <ele>1095.54</ele>
        <time>2022-05-06T11:35:52.253Z</time>
      </trkpt>
      <trkpt lat="45.21146" lon="4.44546">
        <ele>1102.59</ele>
        <time>2022-05-06T11:36:10.571Z</time>
      </trkpt>
      <trkpt lat="45.21127" lon="4.44527">
        <ele>1100.9</ele>
        <time>2022-05-06T11:36:31.000Z</time>
      </trkpt>
      <trkpt lat="45.21114" lon="4.44502">
        <ele>1098.29</ele>
        <time>2022-05-06T11:36:49.531Z</time>
      </trkpt>
      <trkpt lat="45.21098" lon="4.44479">
        <ele>1095.59</ele>
        <time>2022-05-06T11:37:07.436Z</time>
      </trkpt>
      <trkpt lat="45.21082" lon="4.44454">
        <ele>1096.88</ele>
        <time>2022-05-06T11:37:25.909Z</time>
      </trkpt>
      <trkpt lat="45.21066" lon="4.44431">
        <ele>1097.9</ele>
        <time>2022-05-06T11:37:45.627Z</time>
      </trkpt>
      <trkpt lat="45.2105" lon="4.44408">
        <ele>1097.38</ele>
        <time>2022-05-06T11:38:03.648Z</time>
      </trkpt>
      <trkpt lat="45.21037" lon="4.44381">
        <ele>1095.62</ele>
        <time>2022-05-06T11:40:25.094Z</time>
      </trkpt>
      <trkpt lat="45.21029" lon="4.44351">
        <ele>1089.83</ele>
        <time>2022-05-06T11:40:47.859Z</time>
      </trkpt>
      <trkpt lat="45.2102" lon="4.4432">
        <ele>1091.38</ele>
        <time>2022-05-06T11:41:09.019Z</time>
      </trkpt>
      <trkpt lat="45.21016" lon="4.44289">
        <ele>1090.17</ele>
        <time>2022-05-06T11:41:28.315Z</time>
      </trkpt>
      <trkpt lat="45.2101" lon="4.44257">
        <ele>1087.45</ele>
        <time>2022-05-06T11:41:47.920Z</time>
      </trkpt>
      <trkpt lat="45.20997" lon="4.44229">
        <ele>1086.77</ele>
        <time>2022-05-06T11:42:09.859Z</time>
      </trkpt>
      <trkpt lat="45.20984" lon="4.44203">
        <ele>1082.36</ele>
        <time>2022-05-06T11:42:31.518Z</time>
      </trkpt>
      <trkpt lat="45.2097" lon="4.44177">
        <ele>1075.37</ele>
        <time>2022-05-06T11:42:55.033Z</time>
      </trkpt>
      <trkpt lat="45.20954" lon="4.44152">
        <ele>1082.83</ele>
        <time>2022-05-06T11:43:19.000Z</time>
      </trkpt>
      <trkpt lat="45.20936" lon="4.44133">
        <ele>1076.43</ele>
        <time>2022-05-06T11:43:39.000Z</time>
      </trkpt>
      <trkpt lat="45.20921" lon="4.44108">
        <ele>1073.93</ele>
        <time>2022-05-06T11:43:58.360Z</time>
      </trkpt>
      <trkpt lat="45.20905" lon="4.44087">
        <ele>1075.36</ele>
        <time>2022-05-06T11:44:17.456Z</time>
      </trkpt>
      <trkpt lat="45.20887" lon="4.44066">
        <ele>1077.66</ele>
        <time>2022-05-06T11:44:36.954Z</time>
      </trkpt>
      <trkpt lat="45.20869" lon="4.44046">
        <ele>1075.65</ele>
        <time>2022-05-06T11:44:55.378Z</time>
      </trkpt>
      <trkpt lat="45.20856" lon="4.4402">
        <ele>1071.73</ele>
        <time>2022-05-06T11:45:15.039Z</time>
      </trkpt>
      <trkpt lat="45.20842" lon="4.43995">
        <ele>1065.91</ele>
        <time>2022-05-06T11:45:36.000Z</time>
      </trkpt>
      <trkpt lat="45.2083" lon="4.43967">
        <ele>1059.5</ele>
        <time>2022-05-06T11:45:55.295Z</time>
      </trkpt>
      <trkpt lat="45.20815" lon="4.43941">
        <ele>1065.44</ele>
        <time>2022-05-06T11:46:13.573Z</time>
      </trkpt>
      <trkpt lat="45.20802" lon="4.43914">
        <ele>1062.03</ele>
        <time>2022-05-06T11:46:33.293Z</time>
      </trkpt>
      <trkpt lat="45.20789" lon="4.43888">
        <ele>1061.45</ele>
        <time>2022-05-06T11:46:52.774Z</time>
      </trkpt>
      <trkpt lat="45.20775" lon="4.43863">
        <ele>1058.45</ele>
        <time>2022-05-06T11:47:11.032Z</time>
      </trkpt>
      <trkpt lat="45.20764" lon="4.43833">
        <ele>1058.54</ele>
        <time>2022-05-06T11:47:29.657Z</time>
      </trkpt>
      <trkpt lat="45.20749" lon="4.43808">
        <ele>1058.26</ele>
        <time>2022-05-06T11:47:49.597Z</time>
      </trkpt>
      <trkpt lat="45.2073" lon="4.43785">
        <ele>1055.97</ele>
        <time>2022-05-06T11:48:09.780Z</time>
      </trkpt>
      <trkpt lat="45.20712" lon="4.43763">
        <ele>1057.62</ele>
        <time>2022-05-06T11:48:30.075Z</time>
      </trkpt>
      <trkpt lat="45.20692" lon="4.43744">
        <ele>1055.28</ele>
        <time>2022-05-06T11:48:51.000Z</time>
      </trkpt>
      <trkpt lat="45.20671" lon="4.43731">
        <ele>1054.11</ele>
        <time>2022-05-06T11:49:09.754Z</time>
      </trkpt>
      <trkpt lat="45.20651" lon="4.43716">
        <ele>1052.07</ele>
        <time>2022-05-06T11:49:29.119Z</time>
      </trkpt>
      <trkpt lat="45.20634" lon="4.43693">
        <ele>1049.8</ele>
        <time>2022-05-06T11:49:48.897Z</time>
      </trkpt>
      <trkpt lat="45.2062" lon="4.43668">
        <ele>1042.85</ele>
        <time>2022-05-06T11:50:07.709Z</time>
      </trkpt>
      <trkpt lat="45.20609" lon="4.43639">
        <ele>1039.54</ele>
        <time>2022-05-06T11:50:28.533Z</time>
      </trkpt>
      <trkpt lat="45.20604" lon="4.43607">
        <ele>1037.14</ele>
        <time>2022-05-06T11:50:49.000Z</time>
      </trkpt>
      <trkpt lat="45.20604" lon="4.43575">
        <ele>1034.79</ele>
        <time>2022-05-06T11:51:05.887Z</time>
      </trkpt>
      <trkpt lat="45.20602" lon="4.43542">
        <ele>1034.12</ele>
        <time>2022-05-06T11:51:26.049Z</time>
      </trkpt>
      <trkpt lat="45.206" lon="4.43509">
        <ele>1035.27</ele>
        <time>2022-05-06T11:51:46.008Z</time>
      </trkpt>
      <trkpt lat="45.20598" lon="4.43477">
        <ele>1033.37</ele>
        <time>2022-05-06T11:52:05.296Z</time>
      </trkpt>
      <trkpt lat="45.20596" lon="4.43445">
        <ele>1031.59</ele>
        <time>2022-05-06T11:52:24.496Z</time>
      </trkpt>
      <trkpt lat="45.20595" lon="4.43412">
        <ele>1029.73</ele>
        <time>2022-05-06T11:52:45.000Z</time>
      </trkpt>
      <trkpt lat="45.20597" lon="4.4338">
        <ele>1027.93</ele>
        <time>2022-05-06T11:53:02.455Z</time>
      </trkpt>
      <trkpt lat="45.20604" lon="4.43348">
        <ele>1027.62</ele>
        <time>2022-05-06T11:53:21.274Z</time>
      </trkpt>
      <trkpt lat="45.20615" lon="4.4332">
        <ele>1025.67</ele>
        <time>2022-05-06T11:53:40.108Z</time>
      </trkpt>
      <trkpt lat="45.20625" lon="4.4329">
        <ele>1025.68</ele>
        <time>2022-05-06T11:53:58.309Z</time>
      </trkpt>
      <trkpt lat="45.20639" lon="4.43263">
        <ele>1027.03</ele>
        <time>2022-05-06T11:54:18.492Z</time>
      </trkpt>
      <trkpt lat="45.20621" lon="4.43243">
        <ele>1025.07</ele>
        <time>2022-05-06T11:54:54.595Z</time>
      </trkpt>
      <trkpt lat="45.20598" lon="4.43235">
        <ele>1024.28</ele>
        <time>2022-05-06T11:55:21.355Z</time>
      </trkpt>
      <trkpt lat="45.20578" lon="4.4322">
        <ele>1020.82</ele>
        <time>2022-05-06T11:55:44.589Z</time>
      </trkpt>
      <trkpt lat="45.20561" lon="4.432">
        <ele>1018.16</ele>
        <time>2022-05-06T11:56:04.548Z</time>
      </trkpt>
      <trkpt lat="45.20543" lon="4.43178">
        <ele>1017.56</ele>
        <time>2022-05-06T11:56:25.728Z</time>
      </trkpt>
      <trkpt lat="45.20523" lon="4.43163">
        <ele>1015.1</ele>
        <time>2022-05-06T11:56:47.550Z</time>
      </trkpt>
      <trkpt lat="45.20503" lon="4.43147">
        <ele>1013.22</ele>
        <time>2022-05-06T11:57:08.000Z</time>
      </trkpt>
      <trkpt lat="45.20484" lon="4.43129">
        <ele>1011.02</ele>
        <time>2022-05-06T11:57:27.996Z</time>
      </trkpt>
      <trkpt lat="45.20465" lon="4.43111">
        <ele>1009.13</ele>
        <time>2022-05-06T11:57:48.128Z</time>
      </trkpt>
      <trkpt lat="45.20448" lon="4.43089">
        <ele>1007.49</ele>
        <time>2022-05-06T11:58:08.789Z</time>
      </trkpt>
      <trkpt lat="45.20431" lon="4.43068">
        <ele>1004.43</ele>
        <time>2022-05-06T11:58:28.892Z</time>
      </trkpt>
      <trkpt lat="45.20412" lon="4.43049">
        <ele>1001.9</ele>
        <time>2022-05-06T11:58:48.572Z</time>
      </trkpt>
      <trkpt lat="45.20398" lon="4.43023">
        <ele>1001.29</ele>
        <time>2022-05-06T11:59:10.000Z</time>
      </trkpt>
      <trkpt lat="45.20385" lon="4.42996">
        <ele>1001.21</ele>
        <time>2022-05-06T11:59:30.873Z</time>
      </trkpt>
      <trkpt lat="45.20378" lon="4.42965">
        <ele>1000.81</ele>
        <time>2022-05-06T11:59:53.000Z</time>
      </trkpt>
      <trkpt lat="45.2037" lon="4.42933">
        <ele>997.88</ele>
        <time>2022-05-06T12:00:17.015Z</time>
      </trkpt>
      <trkpt lat="45.20355" lon="4.42909">
        <ele>996.99</ele>
        <time>2022-05-06T12:00:45.915Z</time>
      </trkpt>
      <trkpt lat="45.20351" lon="4.42876">
        <ele>997.1</ele>
        <time>2022-05-06T12:01:08.000Z</time>
      </trkpt>
      <trkpt lat="45.20345" lon="4.42844">
        <ele>994.1</ele>
        <time>2022-05-06T12:01:30.000Z</time>
      </trkpt>
      <trkpt lat="45.20338" lon="4.42814">
        <ele>991.62</ele>
        <time>2022-05-06T12:01:51.036Z</time>
      </trkpt>
      <trkpt lat="45.20339" lon="4.42781">
        <ele>989.43</ele>
        <time>2022-05-06T12:02:15.068Z</time>
      </trkpt>
      <trkpt lat="45.20342" lon="4.42748">
        <ele>985.62</ele>
        <time>2022-05-06T12:02:37.333Z</time>
      </trkpt>
      <trkpt lat="45.20348" lon="4.42717">
        <ele>981.46</ele>
        <time>2022-05-06T12:03:02.000Z</time>
      </trkpt>
      <trkpt lat="45.20355" lon="4.42687">
        <ele>983.9</ele>
        <time>2022-05-06T12:03:22.110Z</time>
      </trkpt>
      <trkpt lat="45.20361" lon="4.42655">
        <ele>981.5</ele>
        <time>2022-05-06T12:03:44.931Z</time>
      </trkpt>
      <trkpt lat="45.20363" lon="4.42623">
        <ele>978.18</ele>
        <time>2022-05-06T12:04:11.574Z</time>
      </trkpt>
      <trkpt lat="45.20363" lon="4.42591">
        <ele>979.16</ele>
        <time>2022-05-06T12:04:35.770Z</time>
      </trkpt>
      <trkpt lat="45.2036" lon="4.42559">
        <ele>974.31</ele>
        <time>2022-05-06T12:05:05.688Z</time>
      </trkpt>
      <trkpt lat="45.20359" lon="4.42526">
        <ele>964.22</ele>
        <time>2022-05-06T12:05:35.396Z</time>
      </trkpt>
      <trkpt lat="45.20358" lon="4.42494">
        <ele>958.02</ele>
        <time>2022-05-06T12:06:01.049Z</time>
      </trkpt>
      <trkpt lat="45.20354" lon="4.42461">
        <ele>957.79</ele>
        <time>2022-05-06T12:06:26.955Z</time>
      </trkpt>
      <trkpt lat="45.20357" lon="4.42429">
        <ele>949.48</ele>
        <time>2022-05-06T12:06:54.673Z</time>
      </trkpt>
      <trkpt lat="45.20358" lon="4.42397">
        <ele>947.59</ele>
        <time>2022-05-06T12:07:17.590Z</time>
      </trkpt>
      <trkpt lat="45.2036" lon="4.42364">
        <ele>945.09</ele>
        <time>2022-05-06T12:07:41.371Z</time>
      </trkpt>
      <trkpt lat="45.20361" lon="4.42332">
        <ele>944.36</ele>
        <time>2022-05-06T12:08:03.933Z</time>
      </trkpt>
      <trkpt lat="45.20364" lon="4.42299">
        <ele>939.29</ele>
        <time>2022-05-06T12:08:31.913Z</time>
      </trkpt>
      <trkpt lat="45.20362" lon="4.42267">
        <ele>940.86</ele>
        <time>2022-05-06T12:08:55.618Z</time>
      </trkpt>
      <trkpt lat="45.20368" lon="4.42237">
        <ele>942.24</ele>
        <time>2022-05-06T12:09:21.127Z</time>
      </trkpt>
      <trkpt lat="45.20372" lon="4.42205">
        <ele>930.74</ele>
        <time>2022-05-06T12:12:16.000Z</time>
      </trkpt>
      <trkpt lat="45.20366" lon="4.42173">
        <ele>925.47</ele>
        <time>2022-05-06T12:13:19.076Z</time>
      </trkpt>
      <trkpt lat="45.20371" lon="4.42141">
        <ele>920.16</ele>
        <time>2022-05-06T12:13:45.893Z</time>
      </trkpt>
      <trkpt lat="45.20372" lon="4.42108">
        <ele>916.1</ele>
        <time>2022-05-06T12:14:08.695Z</time>
      </trkpt>
      <trkpt lat="45.20373" lon="4.42074">
        <ele>913.94</ele>
        <time>2022-05-06T12:14:34.129Z</time>
      </trkpt>
      <trkpt lat="45.20375" lon="4.42042">
        <ele>909.38</ele>
        <time>2022-05-06T12:15:03.587Z</time>
      </trkpt>
      <trkpt lat="45.2038" lon="4.4201">
        <ele>904.72</ele>
        <time>2022-05-06T12:15:28.551Z</time>
      </trkpt>
      <trkpt lat="45.20394" lon="4.41986">
        <ele>898.27</ele>
        <time>2022-05-06T12:15:54.504Z</time>
      </trkpt>
      <trkpt lat="45.20382" lon="4.41958">
        <ele>893.53</ele>
        <time>2022-05-06T12:16:22.331Z</time>
      </trkpt>
      <trkpt lat="45.2037" lon="4.4193">
        <ele>891.26</ele>
        <time>2022-05-06T12:16:47.629Z</time>
      </trkpt>
      <trkpt lat="45.20361" lon="4.419">
        <ele>891.28</ele>
        <time>2022-05-06T12:17:21.150Z</time>
      </trkpt>
      <trkpt lat="45.20358" lon="4.41866">
        <ele>881.59</ele>
        <time>2022-05-06T12:17:50.148Z</time>
      </trkpt>
      <trkpt lat="45.20352" lon="4.41835">
        <ele>878.31</ele>
        <time>2022-05-06T12:18:17.089Z</time>
      </trkpt>
      <trkpt lat="45.20347" lon="4.41804">
        <ele>877.87</ele>
        <time>2022-05-06T12:18:43.627Z</time>
      </trkpt>
      <trkpt lat="45.20344" lon="4.41771">
        <ele>878.31</ele>
        <time>2022-05-06T12:19:09.609Z</time>
      </trkpt>
      <trkpt lat="45.20332" lon="4.41744">
        <ele>874.72</ele>
        <time>2022-05-06T12:19:46.530Z</time>
      </trkpt>
      <trkpt lat="45.20329" lon="4.41777">
        <ele>876.44</ele>
        <time>2022-05-06T12:23:11.713Z</time>
      </trkpt>
      <trkpt lat="45.2031" lon="4.41795">
        <ele>878.14</ele>
        <time>2022-05-06T12:23:36.000Z</time>
      </trkpt>
      <trkpt lat="45.20287" lon="4.41797">
        <ele>873.05</ele>
        <time>2022-05-06T12:23:57.494Z</time>
      </trkpt>
      <trkpt lat="45.20277" lon="4.41768">
        <ele>878</ele>
        <time>2022-05-06T12:24:25.653Z</time>
      </trkpt>
      <trkpt lat="45.20273" lon="4.41737">
        <ele>878.02</ele>
        <time>2022-05-06T12:24:51.452Z</time>
      </trkpt>
      <trkpt lat="45.20258" lon="4.4171">
        <ele>885.06</ele>
        <time>2022-05-06T12:26:17.033Z</time>
      </trkpt>
      <trkpt lat="45.2024" lon="4.41692">
        <ele>882.81</ele>
        <time>2022-05-06T12:26:41.000Z</time>
      </trkpt>
      <trkpt lat="45.20225" lon="4.41666">
        <ele>886.89</ele>
        <time>2022-05-06T12:27:09.000Z</time>
      </trkpt>
      <trkpt lat="45.2021" lon="4.41643">
        <ele>888.36</ele>
        <time>2022-05-06T12:27:34.873Z</time>
      </trkpt>
      <trkpt lat="45.20195" lon="4.41619">
        <ele>896.02</ele>
        <time>2022-05-06T12:28:07.000Z</time>
      </trkpt>
      <trkpt lat="45.20175" lon="4.41605">
        <ele>894.91</ele>
        <time>2022-05-06T12:28:43.000Z</time>
      </trkpt>
      <trkpt lat="45.20151" lon="4.41601">
        <ele>895.24</ele>
        <time>2022-05-06T12:29:15.988Z</time>
      </trkpt>
      <trkpt lat="45.20129" lon="4.41594">
        <ele>893.21</ele>
        <time>2022-05-06T12:29:48.000Z</time>
      </trkpt>
      <trkpt lat="45.20108" lon="4.41583">
        <ele>901.46</ele>
        <time>2022-05-06T12:30:18.000Z</time>
      </trkpt>
      <trkpt lat="45.20085" lon="4.41577">
        <ele>901.4</ele>
        <time>2022-05-06T12:30:48.000Z</time>
      </trkpt>
      <trkpt lat="45.20063" lon="4.41577">
        <ele>900.83</ele>
        <time>2022-05-06T12:31:17.751Z</time>
      </trkpt>
      <trkpt lat="45.2004" lon="4.4157">
        <ele>905.46</ele>
        <time>2022-05-06T12:31:49.074Z</time>
      </trkpt>
      <trkpt lat="45.20017" lon="4.41567">
        <ele>911.75</ele>
        <time>2022-05-06T12:32:22.000Z</time>
      </trkpt>
      <trkpt lat="45.19995" lon="4.41573">
        <ele>912.36</ele>
        <time>2022-05-06T12:33:16.000Z</time>
      </trkpt>
      <trkpt lat="45.19973" lon="4.41569">
        <ele>918.36</ele>
        <time>2022-05-06T12:33:48.716Z</time>
      </trkpt>
      <trkpt lat="45.19951" lon="4.41578">
        <ele>911.94</ele>
        <time>2022-05-06T12:34:26.000Z</time>
      </trkpt>
      <trkpt lat="45.19945" lon="4.41609">
        <ele>914.99</ele>
        <time>2022-05-06T12:34:59.000Z</time>
      </trkpt>
      <trkpt lat="45.19962" lon="4.4163">
        <ele>923.88</ele>
        <time>2022-05-06T12:35:55.909Z</time>
      </trkpt>
      <trkpt lat="45.19985" lon="4.41635">
        <ele>925.05</ele>
        <time>2022-05-06T12:36:28.935Z</time>
      </trkpt>
      <trkpt lat="45.20006" lon="4.41649">
        <ele>926.7</ele>
        <time>2022-05-06T12:37:00.953Z</time>
      </trkpt>
      <trkpt lat="45.20022" lon="4.41672">
        <ele>926.41</ele>
        <time>2022-05-06T12:37:32.670Z</time>
      </trkpt>
      <trkpt lat="45.2004" lon="4.41691">
        <ele>928.18</ele>
        <time>2022-05-06T12:37:58.893Z</time>
      </trkpt>
      <trkpt lat="45.2006" lon="4.4171">
        <ele>933.45</ele>
        <time>2022-05-06T12:38:27.948Z</time>
      </trkpt>
      <trkpt lat="45.20078" lon="4.4173">
        <ele>932.79</ele>
        <time>2022-05-06T12:38:55.928Z</time>
      </trkpt>
      <trkpt lat="45.20088" lon="4.41759">
        <ele>938.87</ele>
        <time>2022-05-06T12:39:39.000Z</time>
      </trkpt>
      <trkpt lat="45.2009" lon="4.41791">
        <ele>936.59</ele>
        <time>2022-05-06T12:40:16.716Z</time>
      </trkpt>
      <trkpt lat="45.2008" lon="4.4182">
        <ele>941.2</ele>
        <time>2022-05-06T12:40:46.000Z</time>
      </trkpt>
      <trkpt lat="45.20061" lon="4.41838">
        <ele>943.49</ele>
        <time>2022-05-06T12:42:33.000Z</time>
      </trkpt>
      <trkpt lat="45.2004" lon="4.41855">
        <ele>946.97</ele>
        <time>2022-05-06T12:43:04.000Z</time>
      </trkpt>
      <trkpt lat="45.20019" lon="4.4184">
        <ele>940.69</ele>
        <time>2022-05-06T12:44:08.956Z</time>
      </trkpt>
      <trkpt lat="45.19999" lon="4.41824">
        <ele>941.36</ele>
        <time>2022-05-06T12:44:34.074Z</time>
      </trkpt>
      <trkpt lat="45.19977" lon="4.41822">
        <ele>938.69</ele>
        <time>2022-05-06T12:45:16.992Z</time>
      </trkpt>
      <trkpt lat="45.19954" lon="4.41819">
        <ele>936.18</ele>
        <time>2022-05-06T12:45:46.748Z</time>
      </trkpt>
      <trkpt lat="45.19935" lon="4.41837">
        <ele>936.74</ele>
        <time>2022-05-06T12:46:47.000Z</time>
      </trkpt>
      <trkpt lat="45.19924" lon="4.41867">
        <ele>931.94</ele>
        <time>2022-05-06T12:47:06.913Z</time>
      </trkpt>
      <trkpt lat="45.19913" lon="4.41895">
        <ele>937.18</ele>
        <time>2022-05-06T12:47:25.000Z</time>
      </trkpt>
      <trkpt lat="45.19894" lon="4.41914">
        <ele>943.42</ele>
        <time>2022-05-06T12:47:42.000Z</time>
      </trkpt>
      <trkpt lat="45.1987" lon="4.41921">
        <ele>953.97</ele>
        <time>2022-05-06T12:48:03.969Z</time>
      </trkpt>
      <trkpt lat="45.19848" lon="4.41911">
        <ele>957.19</ele>
        <time>2022-05-06T12:48:21.893Z</time>
      </trkpt>
      <trkpt lat="45.19826" lon="4.41902">
        <ele>959.66</ele>
        <time>2022-05-06T12:48:48.834Z</time>
      </trkpt>
      <trkpt lat="45.19804" lon="4.4189">
        <ele>964.19</ele>
        <time>2022-05-06T12:49:13.895Z</time>
      </trkpt>
      <trkpt lat="45.19782" lon="4.41877">
        <ele>968.62</ele>
        <time>2022-05-06T12:49:53.833Z</time>
      </trkpt>
      <trkpt lat="45.19762" lon="4.41862">
        <ele>969.39</ele>
        <time>2022-05-06T12:50:18.914Z</time>
      </trkpt>
      <trkpt lat="45.19742" lon="4.41846">
        <ele>973.29</ele>
        <time>2022-05-06T12:50:46.000Z</time>
      </trkpt>
      <trkpt lat="45.19724" lon="4.41825">
        <ele>975.07</ele>
        <time>2022-05-06T12:51:11.953Z</time>
      </trkpt>
      <trkpt lat="45.19705" lon="4.41807">
        <ele>975.56</ele>
        <time>2022-05-06T12:51:40.000Z</time>
      </trkpt>
      <trkpt lat="45.19687" lon="4.41787">
        <ele>981.72</ele>
        <time>2022-05-06T12:52:05.000Z</time>
      </trkpt>
      <trkpt lat="45.19665" lon="4.41781">
        <ele>983.57</ele>
        <time>2022-05-06T12:52:35.075Z</time>
      </trkpt>
      <trkpt lat="45.19643" lon="4.41769">
        <ele>989.2</ele>
        <time>2022-05-06T12:53:32.907Z</time>
      </trkpt>
      <trkpt lat="45.19622" lon="4.41756">
        <ele>990.91</ele>
        <time>2022-05-06T12:54:04.930Z</time>
      </trkpt>
      <trkpt lat="45.19601" lon="4.41745">
        <ele>991.1</ele>
        <time>2022-05-06T12:54:37.856Z</time>
      </trkpt>
      <trkpt lat="45.1958" lon="4.41731">
        <ele>992.08</ele>
        <time>2022-05-06T12:55:14.817Z</time>
      </trkpt>
      <trkpt lat="45.19564" lon="4.4171">
        <ele>991.02</ele>
        <time>2022-05-06T12:55:43.795Z</time>
      </trkpt>
      <trkpt lat="45.19548" lon="4.41683">
        <ele>990.76</ele>
        <time>2022-05-06T12:56:09.690Z</time>
      </trkpt>
      <trkpt lat="45.19535" lon="4.41657">
        <ele>989.69</ele>
        <time>2022-05-06T12:56:36.613Z</time>
      </trkpt>
      <trkpt lat="45.19519" lon="4.41633">
        <ele>992.82</ele>
        <time>2022-05-06T12:57:18.000Z</time>
      </trkpt>
      <trkpt lat="45.19508" lon="4.41605">
        <ele>989.01</ele>
        <time>2022-05-06T12:58:00.000Z</time>
      </trkpt>
      <trkpt lat="45.19497" lon="4.41577">
        <ele>988.68</ele>
        <time>2022-05-06T12:58:24.755Z</time>
      </trkpt>
      <trkpt lat="45.19485" lon="4.41549">
        <ele>987.47</ele>
        <time>2022-05-06T12:58:47.788Z</time>
      </trkpt>
      <trkpt lat="45.19476" lon="4.41518">
        <ele>987.8</ele>
        <time>2022-05-06T12:59:12.694Z</time>
      </trkpt>
      <trkpt lat="45.19463" lon="4.41491">
        <ele>989.79</ele>
        <time>2022-05-06T12:59:35.668Z</time>
      </trkpt>
      <trkpt lat="45.19451" lon="4.41464">
        <ele>991.3</ele>
        <time>2022-05-06T12:59:58.673Z</time>
      </trkpt>
      <trkpt lat="45.1944" lon="4.41436">
        <ele>992.89</ele>
        <time>2022-05-06T13:00:22.000Z</time>
      </trkpt>
      <trkpt lat="45.19428" lon="4.41407">
        <ele>992.45</ele>
        <time>2022-05-06T13:00:44.727Z</time>
      </trkpt>
      <trkpt lat="45.19415" lon="4.41378">
        <ele>994</ele>
        <time>2022-05-06T13:01:09.729Z</time>
      </trkpt>
      <trkpt lat="45.19403" lon="4.41351">
        <ele>994.89</ele>
        <time>2022-05-06T13:01:34.000Z</time>
      </trkpt>
      <trkpt lat="45.1939" lon="4.41324">
        <ele>996.94</ele>
        <time>2022-05-06T13:01:56.831Z</time>
      </trkpt>
      <trkpt lat="45.19379" lon="4.41296">
        <ele>998.4</ele>
        <time>2022-05-06T13:02:32.000Z</time>
      </trkpt>
      <trkpt lat="45.19365" lon="4.41268">
        <ele>1000.03</ele>
        <time>2022-05-06T13:02:57.000Z</time>
      </trkpt>
      <trkpt lat="45.19354" lon="4.4124">
        <ele>1000.18</ele>
        <time>2022-05-06T13:03:18.049Z</time>
      </trkpt>
      <trkpt lat="45.19349" lon="4.41207">
        <ele>999.59</ele>
        <time>2022-05-06T13:03:43.531Z</time>
      </trkpt>
      <trkpt lat="45.19356" lon="4.41174">
        <ele>998.89</ele>
        <time>2022-05-06T13:04:05.592Z</time>
      </trkpt>
      <trkpt lat="45.19361" lon="4.41143">
        <ele>999.62</ele>
        <time>2022-05-06T13:04:28.000Z</time>
      </trkpt>
      <trkpt lat="45.19365" lon="4.41111">
        <ele>998.32</ele>
        <time>2022-05-06T13:04:51.071Z</time>
      </trkpt>
      <trkpt lat="45.19365" lon="4.41077">
        <ele>995.33</ele>
        <time>2022-05-06T13:05:17.089Z</time>
      </trkpt>
      <trkpt lat="45.19364" lon="4.41045">
        <ele>995.37</ele>
        <time>2022-05-06T13:06:23.000Z</time>
      </trkpt>
      <trkpt lat="45.19368" lon="4.41013">
        <ele>991.25</ele>
        <time>2022-05-06T13:06:51.000Z</time>
      </trkpt>
      <trkpt lat="45.19369" lon="4.40981">
        <ele>988.6</ele>
        <time>2022-05-06T13:07:16.149Z</time>
      </trkpt>
      <trkpt lat="45.19369" lon="4.40948">
        <ele>986.92</ele>
        <time>2022-05-06T13:07:40.510Z</time>
      </trkpt>
      <trkpt lat="45.19371" lon="4.40916">
        <ele>986.14</ele>
        <time>2022-05-06T13:08:05.057Z</time>
      </trkpt>
      <trkpt lat="45.19371" lon="4.40884">
        <ele>984.44</ele>
        <time>2022-05-06T13:08:28.732Z</time>
      </trkpt>
      <trkpt lat="45.19367" lon="4.4085">
        <ele>981.75</ele>
        <time>2022-05-06T13:08:57.171Z</time>
      </trkpt>
      <trkpt lat="45.19361" lon="4.40818">
        <ele>981.34</ele>
        <time>2022-05-06T13:09:21.615Z</time>
      </trkpt>
      <trkpt lat="45.19355" lon="4.40787">
        <ele>982.29</ele>
        <time>2022-05-06T13:10:10.811Z</time>
      </trkpt>
      <trkpt lat="45.19336" lon="4.40768">
        <ele>983.32</ele>
        <time>2022-05-06T13:10:36.916Z</time>
      </trkpt>
      <trkpt lat="45.19314" lon="4.40762">
        <ele>976.81</ele>
        <time>2022-05-06T13:11:21.854Z</time>
      </trkpt>
      <trkpt lat="45.19301" lon="4.40736">
        <ele>975</ele>
        <time>2022-05-06T13:11:57.000Z</time>
      </trkpt>
      <trkpt lat="45.19292" lon="4.40705">
        <ele>981.3</ele>
        <time>2022-05-06T13:12:43.000Z</time>
      </trkpt>
      <trkpt lat="45.19293" lon="4.40737">
        <ele>972.4</ele>
        <time>2022-05-06T13:14:22.000Z</time>
      </trkpt>
      <trkpt lat="45.193" lon="4.40746">
        <ele>974.43</ele>
        <time>2022-05-06T13:15:27.000Z</time>
      </trkpt>
    </trkseg>
  </trk>
</gpx>